Home > Products > Valid Products > TAF

000
FTUS41 KCTP 290931 AAC
TAFUNV
TAF AMD
KUNV 290931Z 2910/3006 00000KT 2SM BR SCT090
      TEMPO 2912/2914 4SM BR SKC
     FM291400 20005KT P6SM SCT250=



000
FTUS41 KCTP 290931 AAB
TAFAOO
TAF AMD
KAOO 290931Z 2910/3006 00000KT 5SM BR SKC
     FM291015 00000KT 4SM BR SCT250
     FM291400 20005KT P6SM SCT250=



000
FTUS41 KCTP 290931 AAB
TAFAOO
TAF AMD
KAOO 290931Z 2910/3006 00000KT 5SM BR SKC
     FM291015 00000KT 4SM BR SCT250
     FM291400 20005KT P6SM SCT250=



000
FTUS41 KCTP 290931 AAA
TAFBFD
TAF AMD
KBFD 290931Z 2910/3006 00000KT P6SM SKC
     FM291300 20005KT P6SM SCT250
     FM300100 18004KT 4SM -SHRA BKN025
     FM300300 18002KT 4SM BR SCT015 BKN025=



000
FTUS41 KCTP 290931 AAA
TAFJST
TAF AMD
KJST 290931Z 2910/3006 00000KT 6SM BR SKC
     FM291100 00000KT 4SM BR SKC
     FM291300 20005KT P6SM SCT250=



000
FTUS41 KCTP 290931 AAB
TAFIPT
TAF AMD
KIPT 290931Z 2910/3006 00000KT P6SM SKC
     FM291400 20005KT P6SM SCT250=



000
FTUS41 KCTP 290931 AAB
TAFMDT
TAF AMD
KMDT 290931Z 2910/3006 35003KT P6SM FEW250
     FM291400 20005KT P6SM SCT250=



000
FTUS41 KCTP 290931 AAC
TAFUNV
TAF AMD
KUNV 290931Z 2910/3006 00000KT 2SM BR SCT090
      TEMPO 2912/2914 4SM BR SKC
     FM291400 20005KT P6SM SCT250=



000
FTUS41 KCTP 290931 AAA
TAFJST
TAF AMD
KJST 290931Z 2910/3006 00000KT 6SM BR SKC
     FM291100 00000KT 4SM BR SKC
     FM291300 20005KT P6SM SCT250=



000
FTUS41 KCTP 290931 AAB
TAFMDT
TAF AMD
KMDT 290931Z 2910/3006 35003KT P6SM FEW250
     FM291400 20005KT P6SM SCT250=



000
FTUS41 KCTP 290931 AAA
TAFBFD
TAF AMD
KBFD 290931Z 2910/3006 00000KT P6SM SKC
     FM291300 20005KT P6SM SCT250
     FM300100 18004KT 4SM -SHRA BKN025
     FM300300 18002KT 4SM BR SCT015 BKN025=



000
FTUS41 KCTP 290931 AAB
TAFIPT
TAF AMD
KIPT 290931Z 2910/3006 00000KT P6SM SKC
     FM291400 20005KT P6SM SCT250=



000
FTUS41 KCTP 290807 AAB
TAFUNV
TAF AMD
KUNV 290807Z 2908/3006 00000KT 3/4SM BR VV005
     FM291000 00000KT 1SM BR BKN005
      TEMPO 2912/2914 4SM BR SKC
     FM291400 20005KT P6SM SCT250=



000
FTUS41 KCTP 290807 AAB
TAFUNV
TAF AMD
KUNV 290807Z 2908/3006 00000KT 3/4SM BR VV005
     FM291000 00000KT 1SM BR BKN005
      TEMPO 2912/2914 4SM BR SKC
     FM291400 20005KT P6SM SCT250=



000
FTUS41 KCTP 290807 AAB
TAFUNV
TAF AMD
KUNV 290807Z 2908/3006 00000KT 3/4SM BR VV005
     FM291000 00000KT 1SM BR BKN005
      TEMPO 2912/2914 4SM BR SKC
     FM291400 20005KT P6SM SCT250=



000
FTUS41 KCTP 290807 AAB
TAFUNV
TAF AMD
KUNV 290807Z 2908/3006 00000KT 3/4SM BR VV005
     FM291000 00000KT 1SM BR BKN005
      TEMPO 2912/2914 4SM BR SKC
     FM291400 20005KT P6SM SCT250=



000
FTUS41 KCTP 290751 AAA
TAFUNV
TAF AMD
KUNV 290751Z 2908/3006 00000KT P6SM SKC
     FM290900 00000KT 3SM BR SCT250
     FM291000 00000KT 1SM BR SKC
     FM291400 20005KT P6SM SCT250=



000
FTUS41 KCTP 290751 AAA
TAFUNV
TAF AMD
KUNV 290751Z 2908/3006 00000KT P6SM SKC
     FM290900 00000KT 3SM BR SCT250
     FM291000 00000KT 1SM BR SKC
     FM291400 20005KT P6SM SCT250=



000
FTUS41 KCTP 290751 AAA
TAFUNV
TAF AMD
KUNV 290751Z 2908/3006 00000KT P6SM SKC
     FM290900 00000KT 3SM BR SCT250
     FM291000 00000KT 1SM BR SKC
     FM291400 20005KT P6SM SCT250=



000
FTUS41 KCTP 290751 AAA
TAFUNV
TAF AMD
KUNV 290751Z 2908/3006 00000KT P6SM SKC
     FM290900 00000KT 3SM BR SCT250
     FM291000 00000KT 1SM BR SKC
     FM291400 20005KT P6SM SCT250=



000
FTUS41 KCTP 290751 AAA
TAFAOO
TAF AMD
KAOO 290751Z 2908/3006 00000KT P6SM SKC
     FM290900 00000KT 4SM BR SCT250
     FM291400 20005KT P6SM SCT250=



000
FTUS41 KCTP 290751 AAA
TAFAOO
TAF AMD
KAOO 290751Z 2908/3006 00000KT P6SM SKC
     FM290900 00000KT 4SM BR SCT250
     FM291400 20005KT P6SM SCT250=



000
FTUS41 KCTP 290706 AAA
TAFMDT
TAF AMD
KMDT 290706Z 2907/3006 06004KT P6SM SCT250
     FM291000 00000KT 4SM BR SKC
     FM291400 20005KT P6SM SCT250=



000
FTUS41 KCTP 290706 AAA
TAFMDT
TAF AMD
KMDT 290706Z 2907/3006 06004KT P6SM SCT250
     FM291000 00000KT 4SM BR SKC
     FM291400 20005KT P6SM SCT250=



000
FTUS41 KCTP 290706 AAA
TAFMDT
TAF AMD
KMDT 290706Z 2907/3006 06004KT P6SM SCT250
     FM291000 00000KT 4SM BR SKC
     FM291400 20005KT P6SM SCT250=



000
FTUS41 KCTP 290705 AAA
TAFIPT
TAF AMD
KIPT 290705Z 2907/3006 00000KT P6SM SKC
     FM290800 00000KT 4SM BR SKC
     FM291000 00000KT 1SM BR SCT250
     FM291400 20005KT P6SM SCT250=



000
FTUS41 KCTP 290705 AAA
TAFIPT
TAF AMD
KIPT 290705Z 2907/3006 00000KT P6SM SKC
     FM290800 00000KT 4SM BR SKC
     FM291000 00000KT 1SM BR SCT250
     FM291400 20005KT P6SM SCT250=



000
FTUS41 KCTP 290550
TAFAOO
TAF
KAOO 290550Z 2906/3006 00000KT P6SM SKC
     FM290700 00000KT 4SM BR SCT250
     FM290900 00000KT 1SM BR SKC
     FM291400 20005KT P6SM SCT250=



000
FTUS41 KCTP 290550
TAFIPT
TAF
KIPT 290550Z 2906/3006 00000KT P6SM SKC
     FM290700 00000KT 4SM BR SKC
     FM290900 00000KT 1SM BR SCT250
     FM291400 20005KT P6SM SCT250=



000
FTUS41 KCTP 290550
TAFUNV
TAF
KUNV 290550Z 2906/3006 00000KT P6SM SKC
     FM290700 00000KT 3SM BR SCT250
     FM290900 00000KT 1SM BR SKC
     FM291400 20005KT P6SM SCT250=



000
FTUS41 KCTP 290550
TAFBFD
TAF
KBFD 290550Z 2906/3006 00000KT P6SM SKC
     FM290900 00000KT 4SM BR SKC
     FM291300 20005KT P6SM SCT250
     FM300100 18004KT 4SM -SHRA BKN025
     FM300300 18002KT 4SM BR SCT015 BKN025=



000
FTUS41 KCTP 290550
TAFJST
TAF
KJST 290550Z 2906/3006 17004KT P6SM SKC
     FM290900 VRB03KT 4SM BR SKC
     FM291100 VRB03KT 1SM BR SKC
     FM291300 20005KT P6SM SCT250=



000
FTUS41 KCTP 290550
TAFMDT
TAF
KMDT 290550Z 2906/3006 06004KT P6SM SCT250
     FM290700 00000KT 4SM BR SKC
     FM291400 20005KT P6SM SCT250=



000
FTUS41 KCTP 290550
TAFJST
TAF
KJST 290550Z 2906/3006 17004KT P6SM SKC
     FM290900 VRB03KT 4SM BR SKC
     FM291100 VRB03KT 1SM BR SKC
     FM291300 20005KT P6SM SCT250=



000
FTUS41 KCTP 290550
TAFMDT
TAF
KMDT 290550Z 2906/3006 06004KT P6SM SCT250
     FM290700 00000KT 4SM BR SKC
     FM291400 20005KT P6SM SCT250=



000
FTUS41 KCTP 290550
TAFUNV
TAF
KUNV 290550Z 2906/3006 00000KT P6SM SKC
     FM290700 00000KT 3SM BR SCT250
     FM290900 00000KT 1SM BR SKC
     FM291400 20005KT P6SM SCT250=



000
FTUS41 KCTP 290550
TAFBFD
TAF
KBFD 290550Z 2906/3006 00000KT P6SM SKC
     FM290900 00000KT 4SM BR SKC
     FM291300 20005KT P6SM SCT250
     FM300100 18004KT 4SM -SHRA BKN025
     FM300300 18002KT 4SM BR SCT015 BKN025=



000
FTUS41 KCTP 290550
TAFAOO
TAF
KAOO 290550Z 2906/3006 00000KT P6SM SKC
     FM290700 00000KT 4SM BR SCT250
     FM290900 00000KT 1SM BR SKC
     FM291400 20005KT P6SM SCT250=



000
FTUS41 KCTP 290550
TAFIPT
TAF
KIPT 290550Z 2906/3006 00000KT P6SM SKC
     FM290700 00000KT 4SM BR SKC
     FM290900 00000KT 1SM BR SCT250
     FM291400 20005KT P6SM SCT250=



000
FTUS41 KCTP 290550
TAFIPT
TAF
KIPT 290550Z 2906/3006 00000KT P6SM SKC
     FM290700 00000KT 4SM BR SKC
     FM290900 00000KT 1SM BR SCT250
     FM291400 20005KT P6SM SCT250=



000
FTUS41 KCTP 290550
TAFJST
TAF
KJST 290550Z 2906/3006 17004KT P6SM SKC
     FM290900 VRB03KT 4SM BR SKC
     FM291100 VRB03KT 1SM BR SKC
     FM291300 20005KT P6SM SCT250=



000
FTUS41 KCTP 290550
TAFUNV
TAF
KUNV 290550Z 2906/3006 00000KT P6SM SKC
     FM290700 00000KT 3SM BR SCT250
     FM290900 00000KT 1SM BR SKC
     FM291400 20005KT P6SM SCT250=



000
FTUS41 KCTP 290550
TAFAOO
TAF
KAOO 290550Z 2906/3006 00000KT P6SM SKC
     FM290700 00000KT 4SM BR SCT250
     FM290900 00000KT 1SM BR SKC
     FM291400 20005KT P6SM SCT250=



000
FTUS41 KCTP 290550
TAFMDT
TAF
KMDT 290550Z 2906/3006 06004KT P6SM SCT250
     FM290700 00000KT 4SM BR SKC
     FM291400 20005KT P6SM SCT250=



000
FTUS41 KCTP 290550
TAFBFD
TAF
KBFD 290550Z 2906/3006 00000KT P6SM SKC
     FM290900 00000KT 4SM BR SKC
     FM291300 20005KT P6SM SCT250
     FM300100 18004KT 4SM -SHRA BKN025
     FM300300 18002KT 4SM BR SCT015 BKN025=



000
FTUS41 KCTP 290320 AAA
TAFIPT
TAF AMD
KIPT 290320Z 2903/2924 VRB03KT P6SM SCT040
     FM290600 00000KT 4SM BR SKC
     FM290800 00000KT 1SM BR SCT250
     FM291300 20005KT P6SM SCT250=



000
FTUS41 KCTP 290320 AAA
TAFBFD
TAF AMD
KBFD 290320Z 2903/2924 VRB03KT P6SM SKC
     FM290600 00000KT 4SM BR SKC
     FM291300 20005KT P6SM SCT250=



000
FTUS41 KCTP 290320 AAA
TAFUNV
TAF AMD
KUNV 290320Z 2903/2924 VRB03KT P6SM SKC
     FM290600 00000KT 3SM BR SCT250
     FM290900 00000KT 1SM BR SKC
     FM291300 20005KT P6SM SCT250=



000
FTUS41 KCTP 290320 AAA
TAFMDT
TAF AMD
KMDT 290320Z 2903/2924 VRB03KT P6SM SCT050
     FM290700 00000KT 4SM BR SKC
     FM291000 00000KT 1SM BR SCT250
     FM291400 20005KT P6SM SCT250=



000
FTUS41 KCTP 290320 AAA
TAFAOO
TAF AMD
KAOO 290320Z 2903/2924 VRB03KT P6SM SKC
     FM290600 00000KT 4SM BR SCT250
     FM290900 00000KT 1SM BR SKC
     FM291300 20005KT P6SM SCT250=



000
FTUS41 KCTP 290320 AAA
TAFIPT
TAF AMD
KIPT 290320Z 2903/2924 VRB03KT P6SM SCT040
     FM290600 00000KT 4SM BR SKC
     FM290800 00000KT 1SM BR SCT250
     FM291300 20005KT P6SM SCT250=



000
FTUS41 KCTP 290320 AAA
TAFBFD
TAF AMD
KBFD 290320Z 2903/2924 VRB03KT P6SM SKC
     FM290600 00000KT 4SM BR SKC
     FM291300 20005KT P6SM SCT250=



000
FTUS41 KCTP 290320 AAA
TAFUNV
TAF AMD
KUNV 290320Z 2903/2924 VRB03KT P6SM SKC
     FM290600 00000KT 3SM BR SCT250
     FM290900 00000KT 1SM BR SKC
     FM291300 20005KT P6SM SCT250=



000
FTUS41 KCTP 290320 AAA
TAFMDT
TAF AMD
KMDT 290320Z 2903/2924 VRB03KT P6SM SCT050
     FM290700 00000KT 4SM BR SKC
     FM291000 00000KT 1SM BR SCT250
     FM291400 20005KT P6SM SCT250=



000
FTUS41 KCTP 290320 AAA
TAFAOO
TAF AMD
KAOO 290320Z 2903/2924 VRB03KT P6SM SKC
     FM290600 00000KT 4SM BR SCT250
     FM290900 00000KT 1SM BR SKC
     FM291300 20005KT P6SM SCT250=



000
FTUS41 KCTP 290320 AAA
TAFJST
TAF AMD
KJST 290320Z 2903/2924 VRB03KT P6SM SCT050
     FM290600 VRB03KT 4SM BR SKC
     FM290900 VRB03KT 1SM BR SKC
     FM291300 20005KT P6SM SCT250=



000
FTUS41 KCTP 290320 AAA
TAFJST
TAF AMD
KJST 290320Z 2903/2924 VRB03KT P6SM SCT050
     FM290600 VRB03KT 4SM BR SKC
     FM290900 VRB03KT 1SM BR SKC
     FM291300 20005KT P6SM SCT250=



000
FTUS41 KCTP 282320
TAFJST
TAF
KJST 282320Z 2900/2924 VRB03KT P6SM SCT050
     FM290600 VRB03KT 4SM BR SKC
     FM290900 VRB03KT 1SM BR SKC
     FM291300 20005KT P6SM SCT250=



000
FTUS41 KCTP 282320
TAFMDT
TAF
KMDT 282320Z 2900/2924 VRB03KT P6SM SCT050
     FM290700 00000KT 4SM BR SKC
     FM291000 00000KT 1SM BR SCT250
     FM291400 20005KT P6SM SCT250=



000
FTUS41 KCTP 282320
TAFBFD
TAF
KBFD 282320Z 2900/2924 VRB03KT P6SM SKC
     FM290600 00000KT 4SM BR SKC
     FM291300 20005KT P6SM SCT250=



000
FTUS41 KCTP 282320
TAFBFD
TAF
KBFD 282320Z 2900/2924 VRB03KT P6SM SKC
     FM290600 00000KT 4SM BR SKC
     FM291300 20005KT P6SM SCT250=



000
FTUS41 KCTP 282320
TAFIPT
TAF
KIPT 282320Z 2900/2924 VRB03KT P6SM SCT040
     FM290600 00000KT 4SM BR SKC
     FM290800 00000KT 1SM BR SCT250
     FM291300 20005KT P6SM SCT250=



000
FTUS41 KCTP 282320
TAFBFD
TAF
KBFD 282320Z 2900/2924 VRB03KT P6SM SKC
     FM290600 00000KT 4SM BR SKC
     FM291300 20005KT P6SM SCT250=



000
FTUS41 KCTP 282320
TAFAOO
TAF
KAOO 282320Z 2900/2924 VRB03KT P6SM SKC
     FM290600 00000KT 4SM BR SCT250
     FM290900 00000KT 1SM BR SKC
     FM291300 20005KT P6SM SCT250=



000
FTUS41 KCTP 282320
TAFUNV
TAF
KUNV 282320Z 2900/2924 VRB03KT P6SM SKC
     FM290600 00000KT 3SM BR SCT250
     FM290900 00000KT 1SM BR SKC
     FM291300 20005KT P6SM SCT250=



000
FTUS41 KCTP 282320
TAFMDT
TAF
KMDT 282320Z 2900/2924 VRB03KT P6SM SCT050
     FM290700 00000KT 4SM BR SKC
     FM291000 00000KT 1SM BR SCT250
     FM291400 20005KT P6SM SCT250=



000
FTUS41 KCTP 282320
TAFJST
TAF
KJST 282320Z 2900/2924 VRB03KT P6SM SCT050
     FM290600 VRB03KT 4SM BR SKC
     FM290900 VRB03KT 1SM BR SKC
     FM291300 20005KT P6SM SCT250=



000
FTUS41 KCTP 282320
TAFIPT
TAF
KIPT 282320Z 2900/2924 VRB03KT P6SM SCT040
     FM290600 00000KT 4SM BR SKC
     FM290800 00000KT 1SM BR SCT250
     FM291300 20005KT P6SM SCT250=



000
FTUS41 KCTP 282320
TAFUNV
TAF
KUNV 282320Z 2900/2924 VRB03KT P6SM SKC
     FM290600 00000KT 3SM BR SCT250
     FM290900 00000KT 1SM BR SKC
     FM291300 20005KT P6SM SCT250=



000
FTUS41 KCTP 282320
TAFAOO
TAF
KAOO 282320Z 2900/2924 VRB03KT P6SM SKC
     FM290600 00000KT 4SM BR SCT250
     FM290900 00000KT 1SM BR SKC
     FM291300 20005KT P6SM SCT250=



000
FTUS41 KCTP 282320
TAFJST
TAF
KJST 282320Z 2900/2924 VRB03KT P6SM SCT050
     FM290600 VRB03KT 4SM BR SKC
     FM290900 VRB03KT 1SM BR SKC
     FM291300 20005KT P6SM SCT250=



000
FTUS41 KCTP 282320
TAFMDT
TAF
KMDT 282320Z 2900/2924 VRB03KT P6SM SCT050
     FM290700 00000KT 4SM BR SKC
     FM291000 00000KT 1SM BR SCT250
     FM291400 20005KT P6SM SCT250=



000
FTUS41 KCTP 282320
TAFJST
TAF
KJST 282320Z 2900/2924 VRB03KT P6SM SCT050
     FM290600 VRB03KT 4SM BR SKC
     FM290900 VRB03KT 1SM BR SKC
     FM291300 20005KT P6SM SCT250=



000
FTUS41 KCTP 282320
TAFMDT
TAF
KMDT 282320Z 2900/2924 VRB03KT P6SM SCT050
     FM290700 00000KT 4SM BR SKC
     FM291000 00000KT 1SM BR SCT250
     FM291400 20005KT P6SM SCT250=



000
FTUS41 KCTP 282320
TAFBFD
TAF
KBFD 282320Z 2900/2924 VRB03KT P6SM SKC
     FM290600 00000KT 4SM BR SKC
     FM291300 20005KT P6SM SCT250=



000
FTUS41 KCTP 282137 AAA
TAFJST
TAF AMD
KJST 282137Z 2822/2918 VRB03KT P6SM SCT050
     FM290900 VRB03KT 4SM BR SKC
     FM291300 20005KT P6SM SCT250=



000
FTUS41 KCTP 282137 AAA
TAFUNV
TAF AMD
KUNV 282137Z 2822/2918 VRB03KT P6SM SCT040
     FM290600 00000KT 3SM BR SCT250
     FM290900 00000KT 1SM BR SKC
     FM291300 20005KT P6SM SCT250=



000
FTUS41 KCTP 282137 AAA
TAFIPT
TAF AMD
KIPT 282137Z 2822/2918 VRB03KT P6SM SCT040
     FM290600 00000KT 4SM BR SKC
     FM290800 00000KT 1SM BR SCT250
     FM291300 20005KT P6SM SCT250=



000
FTUS41 KCTP 282137 AAA
TAFMDT
TAF AMD
KMDT 282137Z 2822/2918 VRB03KT P6SM SCT035
     FM290200 00000KT 4SM BR SKC
     FM290800 00000KT 1SM BR SCT250
     FM291300 20005KT P6SM SCT250=



000
FTUS41 KCTP 282137 AAA
TAFMDT
TAF AMD
KMDT 282137Z 2822/2918 VRB03KT P6SM SCT035
     FM290200 00000KT 4SM BR SKC
     FM290800 00000KT 1SM BR SCT250
     FM291300 20005KT P6SM SCT250=



000
FTUS41 KCTP 282137 AAA
TAFIPT
TAF AMD
KIPT 282137Z 2822/2918 VRB03KT P6SM SCT040
     FM290600 00000KT 4SM BR SKC
     FM290800 00000KT 1SM BR SCT250
     FM291300 20005KT P6SM SCT250=



000
FTUS41 KCTP 282137 AAA
TAFBFD
TAF AMD
KBFD 282137Z 2822/2918 VRB03KT P6SM SKC
     FM290300 00000KT 2SM BR SKC
     FM290700 00000KT 6SM BR SKC
     FM291300 20005KT P6SM SCT250=



000
FTUS41 KCTP 282137 AAA
TAFBFD
TAF AMD
KBFD 282137Z 2822/2918 VRB03KT P6SM SKC
     FM290300 00000KT 2SM BR SKC
     FM290700 00000KT 6SM BR SKC
     FM291300 20005KT P6SM SCT250=



000
FTUS41 KCTP 282137 AAA
TAFAOO
TAF AMD
KAOO 282137Z 2822/2918 VRB03KT P6SM FEW040
     FM290600 00000KT 2SM BR SCT250
     FM291300 20005KT P6SM SCT250=



000
FTUS41 KCTP 282137 AAA
TAFAOO
TAF AMD
KAOO 282137Z 2822/2918 VRB03KT P6SM FEW040
     FM290600 00000KT 2SM BR SCT250
     FM291300 20005KT P6SM SCT250=



000
FTUS41 KCTP 282137 AAA
TAFUNV
TAF AMD
KUNV 282137Z 2822/2918 VRB03KT P6SM SCT040
     FM290600 00000KT 3SM BR SCT250
     FM290900 00000KT 1SM BR SKC
     FM291300 20005KT P6SM SCT250=



000
FTUS41 KCTP 282137 AAA
TAFJST
TAF AMD
KJST 282137Z 2822/2918 VRB03KT P6SM SCT050
     FM290900 VRB03KT 4SM BR SKC
     FM291300 20005KT P6SM SCT250=



000
FTUS41 KCTP 281742 CCA
TAFMDT
TAF COR
KMDT 281742Z 2818/2918 VRB03KT 6SM HZ SCT035
     FM290200 00000KT 4SM BR SKC
     FM290800 00000KT 1SM BR SCT250
     FM291300 20005KT P6SM SCT250=



000
FTUS41 KCTP 281742 CCA
TAFMDT
TAF COR
KMDT 281742Z 2818/2918 VRB03KT 6SM HZ SCT035
     FM290200 00000KT 4SM BR SKC
     FM290800 00000KT 1SM BR SCT250
     FM291300 20005KT P6SM SCT250=



000
FTUS41 KCTP 281742 CCB
TAFIPT
TAF COR
KIPT 281742Z 2818/2918 VRB03KT P6SM SCT040
     FM282200 VRB03KT P6SM SKC
     FM290600 00000KT 4SM BR SKC
     FM290800 00000KT 1SM BR SCT250
     FM291300 20005KT P6SM SCT250=



000
FTUS41 KCTP 281742 CCB
TAFIPT
TAF COR
KIPT 281742Z 2818/2918 VRB03KT P6SM SCT040
     FM282200 VRB03KT P6SM SKC
     FM290600 00000KT 4SM BR SKC
     FM290800 00000KT 1SM BR SCT250
     FM291300 20005KT P6SM SCT250=



000
FTUS41 KCTP 281740 CCA
TAFIPT
TAF COR
KIPT 281740Z 2818/2918 VRB03KT P6SM SCT040
     FM281900 VRB03KT P6SM VCSH SCT040
     FM282200 VRB03KT P6SM SKC
     FM290600 00000KT 4SM BR SKC
     FM290800 00000KT 1SM BR SCT250
     FM291300 20005KT P6SM SCT250=



000
FTUS41 KCTP 281740 CCA
TAFIPT
TAF COR
KIPT 281740Z 2818/2918 VRB03KT P6SM SCT040
     FM281900 VRB03KT P6SM VCSH SCT040
     FM282200 VRB03KT P6SM SKC
     FM290600 00000KT 4SM BR SKC
     FM290800 00000KT 1SM BR SCT250
     FM291300 20005KT P6SM SCT250=



000
FTUS41 KCTP 281739
TAFBFD
TAF
KBFD 281739Z 2818/2918 VRB03KT P6SM SKC
     FM290300 00000KT 2SM BR SKC
     FM290700 00000KT 6SM BR SKC
     FM291300 20005KT P6SM SCT250=



000
FTUS41 KCTP 281739
TAFUNV
TAF
KUNV 281739Z 2818/2918 VRB03KT P6SM SCT040
     FM290600 00000KT 3SM BR SCT250
     FM290900 00000KT 1SM BR SKC
     FM291300 20005KT P6SM SCT250=



000
FTUS41 KCTP 281739
TAFJST
TAF
KJST 281739Z 2818/2918 VRB03KT P6SM VCSH BKN050
     FM282300 VRB03KT P6SM SKC
     FM290900 VRB03KT 4SM BR SKC
     FM291300 20005KT P6SM SCT250=



000
FTUS41 KCTP 281739
TAFAOO
TAF
KAOO 281739Z 2818/2918 VRB03KT P6SM FEW040
     FM281900 VRB03KT P6SM VCSH SCT040
     FM282200 VRB03KT P6SM SKC
     FM290600 00000KT 2SM BR SCT250
     FM291300 20005KT P6SM SCT250=



000
FTUS41 KCTP 281739
TAFIPT
TAF
KIPT 281739Z 2818/2918 VRB03KT P6SM SCT040=



000
FTUS41 KCTP 281739
TAFMDT
TAF
KMDT 281739Z 2818/2918 VRB03KT 6SM HZ SCT035
     FM290200 00000KT 4SM BR SKC=



000
FTUS41 KCTP 281739
TAFJST
TAF
KJST 281739Z 2818/2918 VRB03KT P6SM VCSH BKN050
     FM282300 VRB03KT P6SM SKC
     FM290900 VRB03KT 4SM BR SKC
     FM291300 20005KT P6SM SCT250=



000
FTUS41 KCTP 281739
TAFBFD
TAF
KBFD 281739Z 2818/2918 VRB03KT P6SM SKC
     FM290300 00000KT 2SM BR SKC
     FM290700 00000KT 6SM BR SKC
     FM291300 20005KT P6SM SCT250=



000
FTUS41 KCTP 281739
TAFIPT
TAF
KIPT 281739Z 2818/2918 VRB03KT P6SM SCT040=



000
FTUS41 KCTP 281739
TAFMDT
TAF
KMDT 281739Z 2818/2918 VRB03KT 6SM HZ SCT035
     FM290200 00000KT 4SM BR SKC=



000
FTUS41 KCTP 281739
TAFAOO
TAF
KAOO 281739Z 2818/2918 VRB03KT P6SM FEW040
     FM281900 VRB03KT P6SM VCSH SCT040
     FM282200 VRB03KT P6SM SKC
     FM290600 00000KT 2SM BR SCT250
     FM291300 20005KT P6SM SCT250=



000
FTUS41 KCTP 281739
TAFUNV
TAF
KUNV 281739Z 2818/2918 VRB03KT P6SM SCT040
     FM290600 00000KT 3SM BR SCT250
     FM290900 00000KT 1SM BR SKC
     FM291300 20005KT P6SM SCT250=



000
FTUS41 KCTP 281613 AAD
TAFMDT
TAF AMD
KMDT 281613Z 2816/2912 VRB03KT 5SM HZ FEW015 SCT030
     FM281800 VRB03KT 6SM HZ SCT035
     FM290200 00000KT 4SM BR SKC=



000
FTUS41 KCTP 281613 AAD
TAFMDT
TAF AMD
KMDT 281613Z 2816/2912 VRB03KT 5SM HZ FEW015 SCT030
     FM281800 VRB03KT 6SM HZ SCT035
     FM290200 00000KT 4SM BR SKC=



000
FTUS41 KCTP 281449 AAA
TAFBFD
TAF AMD
KBFD 281449Z 2815/2912 VRB03KT P6SM SKC
     FM290300 00000KT 2SM BR BKN250=



000
FTUS41 KCTP 281449 AAA
TAFBFD
TAF AMD
KBFD 281449Z 2815/2912 VRB03KT P6SM SKC
     FM290300 00000KT 2SM BR BKN250=



000
FTUS41 KCTP 281448 AAC
TAFMDT
TAF AMD
KMDT 281448Z 2815/2912 VRB03KT 5SM BR SCT008
     FM281530 VRB03KT P6SM FEW040
     FM290600 00000KT 4SM BR SKC=



000
FTUS41 KCTP 281448 AAC
TAFMDT
TAF AMD
KMDT 281448Z 2815/2912 VRB03KT 5SM BR SCT008
     FM281530 VRB03KT P6SM FEW040
     FM290600 00000KT 4SM BR SKC=



000
FTUS41 KCTP 281447 AAB
TAFIPT
TAF AMD
KIPT 281447Z 2815/2912 VRB03KT P6SM SCT040=



000
FTUS41 KCTP 281447 AAB
TAFIPT
TAF AMD
KIPT 281447Z 2815/2912 VRB03KT P6SM SCT040=



000
FTUS41 KCTP 281447 AAA
TAFUNV
TAF AMD
KUNV 281447Z 2815/2912 VRB03KT 4SM BR BKN007
     FM281530 VRB03KT P6SM SCT040
     FM290600 00000KT 2SM BR SCT250
     FM290900 00000KT 1/2SM FG SKC=



000
FTUS41 KCTP 281447 AAA
TAFUNV
TAF AMD
KUNV 281447Z 2815/2912 VRB03KT 4SM BR BKN007
     FM281530 VRB03KT P6SM SCT040
     FM290600 00000KT 2SM BR SCT250
     FM290900 00000KT 1/2SM FG SKC=



000
FTUS41 KCTP 281447 AAB
TAFIPT
TAF AMD
KIPT 281447Z 2815/2912 VRB03KT P6SM SCT040=



000
FTUS41 KCTP 281447 AAB
TAFIPT
TAF AMD
KIPT 281447Z 2815/2912 VRB03KT P6SM SCT040=



000
FTUS41 KCTP 281445 AAA
TAFAOO
TAF AMD
KAOO 281445Z 2815/2912 VRB03KT P6SM FEW040
     FM281900 VRB03KT P6SM VCSH SCT040
     FM282200 VRB03KT P6SM SKC
     FM290600 00000KT 2SM BR SCT250=



000
FTUS41 KCTP 281445 AAA
TAFAOO
TAF AMD
KAOO 281445Z 2815/2912 VRB03KT P6SM FEW040
     FM281900 VRB03KT P6SM VCSH SCT040
     FM282200 VRB03KT P6SM SKC
     FM290600 00000KT 2SM BR SCT250=



000
FTUS41 KCTP 281438 AAC
TAFJST
TAF AMD
KJST 281438Z 2815/2912 VRB03KT P6SM SCT020
     FM281800 VRB03KT P6SM VCSH BKN035
     FM282200 VRB03KT P6SM SKC=



000
FTUS41 KCTP 281438 AAC
TAFJST
TAF AMD
KJST 281438Z 2815/2912 VRB03KT P6SM SCT020
     FM281800 VRB03KT P6SM VCSH BKN035
     FM282200 VRB03KT P6SM SKC=



000
FTUS41 KCTP 281402 AAA
TAFIPT
TAF AMD
KIPT 281402Z 2814/2912 27004KT 2SM BR OVC005
      TEMPO 2814/2815 4SM BR SCT002
     FM281500 VRB03KT P6SM SCT040=



000
FTUS41 KCTP 281402 AAA
TAFIPT
TAF AMD
KIPT 281402Z 2814/2912 27004KT 2SM BR OVC005
      TEMPO 2814/2815 4SM BR SCT002
     FM281500 VRB03KT P6SM SCT040=



000
FTUS41 KCTP 281402 AAA
TAFIPT
TAF AMD
KIPT 281402Z 2814/2912 27004KT 2SM BR OVC005
      TEMPO 2814/2815 4SM BR SCT002
     FM281500 VRB03KT P6SM SCT040=



000
FTUS41 KCTP 281402 AAA
TAFIPT
TAF AMD
KIPT 281402Z 2814/2912 27004KT 2SM BR OVC005
      TEMPO 2814/2815 4SM BR SCT002
     FM281500 VRB03KT P6SM SCT040=



000
FTUS41 KCTP 281317 AAB
TAFMDT
TAF AMD
KMDT 281317Z 2813/2912 00000KT 3/4SM BR OVC002
      TEMPO 2813/2814 1 1/2SM BR SCT003
     FM281400 VRB03KT 2SM BR BKN004
      TEMPO 2814/2815 5SM BR
     FM281500 VRB03KT P6SM FEW040
     FM290600 00000KT 4SM BR SKC=



000
FTUS41 KCTP 281317 AAB
TAFMDT
TAF AMD
KMDT 281317Z 2813/2912 00000KT 3/4SM BR OVC002
      TEMPO 2813/2814 1 1/2SM BR SCT003
     FM281400 VRB03KT 2SM BR BKN004
      TEMPO 2814/2815 5SM BR
     FM281500 VRB03KT P6SM FEW040
     FM290600 00000KT 4SM BR SKC=



000
FTUS41 KCTP 281316 AAB
TAFJST
TAF AMD
KJST 281316Z 2813/2912 09004KT 2SM BR SCT004
      TEMPO 2813/2814 3SM BR SCT004
     FM281400 15003KT 4SM BR SKC
     FM281600 14005KT P6SM SKC=



000
FTUS41 KCTP 281316 AAB
TAFJST
TAF AMD
KJST 281316Z 2813/2912 09004KT 2SM BR SCT004
      TEMPO 2813/2814 3SM BR SCT004
     FM281400 15003KT 4SM BR SKC
     FM281600 14005KT P6SM SKC=



000
FTUS41 KCTP 281316 AAB
TAFJST
TAF AMD
KJST 281316Z 2813/2912 09004KT 2SM BR SCT004
      TEMPO 2813/2814 3SM BR SCT004
     FM281400 15003KT 4SM BR SKC
     FM281600 14005KT P6SM SKC=



000
FTUS41 KCTP 281235 AAA
TAFMDT
TAF AMD
KMDT 281235Z 2813/2912 00000KT 1/4SM FG OVC002
      TEMPO 2813/2814 3/4SM BR SCT003
     FM281400 VRB03KT 2SM BR BKN004
      TEMPO 2814/2815 5SM BR
     FM281500 VRB03KT P6SM FEW040
     FM290600 00000KT 4SM BR SKC=



000
FTUS41 KCTP 281235 AAA
TAFMDT
TAF AMD
KMDT 281235Z 2813/2912 00000KT 1/4SM FG OVC002
      TEMPO 2813/2814 3/4SM BR SCT003
     FM281400 VRB03KT 2SM BR BKN004
      TEMPO 2814/2815 5SM BR
     FM281500 VRB03KT P6SM FEW040
     FM290600 00000KT 4SM BR SKC=



000
FTUS41 KCTP 281235 AAA
TAFMDT
TAF AMD
KMDT 281235Z 2813/2912 00000KT 1/4SM FG OVC002
      TEMPO 2813/2814 3/4SM BR SCT003
     FM281400 VRB03KT 2SM BR BKN004
      TEMPO 2814/2815 5SM BR
     FM281500 VRB03KT P6SM FEW040
     FM290600 00000KT 4SM BR SKC=



000
FTUS41 KCTP 281233 AAA
TAFJST
TAF AMD
KJST 281233Z 2813/2912 00000KT 1/4SM FG BKN004 OVC011
     FM281330 09004KT 1SM BR BKN004
      TEMPO 2814/2815 3SM BR SCT004
     FM281500 15003KT 4SM BR SKC
     FM281600 14005KT P6SM SKC=



000
FTUS41 KCTP 281233 AAA
TAFJST
TAF AMD
KJST 281233Z 2813/2912 00000KT 1/4SM FG BKN004 OVC011
     FM281330 09004KT 1SM BR BKN004
      TEMPO 2814/2815 3SM BR SCT004
     FM281500 15003KT 4SM BR SKC
     FM281600 14005KT P6SM SKC=



000
FTUS41 KCTP 281233 AAA
TAFJST
TAF AMD
KJST 281233Z 2813/2912 00000KT 1/4SM FG BKN004 OVC011
     FM281330 09004KT 1SM BR BKN004
      TEMPO 2814/2815 3SM BR SCT004
     FM281500 15003KT 4SM BR SKC
     FM281600 14005KT P6SM SKC=



000
FTUS41 KCTP 281233 AAA
TAFJST
TAF AMD
KJST 281233Z 2813/2912 00000KT 1/4SM FG BKN004 OVC011
     FM281330 09004KT 1SM BR BKN004
      TEMPO 2814/2815 3SM BR SCT004
     FM281500 15003KT 4SM BR SKC
     FM281600 14005KT P6SM SKC=



000
FTUS41 KCTP 281143
TAFUNV
TAF
KUNV 281143Z 2812/2912 00000KT 1/4SM FG OVC001
      TEMPO 2813/2815 2SM BR SKC
     FM281500 00000KT 4SM BR SCT007
     FM281600 VRB03KT P6SM SCT040
     FM290600 00000KT 2SM BR SCT250
     FM290900 00000KT 1/2SM FG SKC=



000
FTUS41 KCTP 281143
TAFMDT
TAF
KMDT 281143Z 2812/2912 00000KT 2SM BR OVC003
      TEMPO 2813/2814 4SM BR SCT003
     FM281400 VRB03KT P6SM FEW040
     FM290600 00000KT 4SM BR SKC=



000
FTUS41 KCTP 281143
TAFIPT
TAF
KIPT 281143Z 2812/2912 27004KT 1/2SM FG OVC002
      TEMPO 2813/2814 2SM BR SCT002
     FM281400 00000KT 4SM BR SCT003
     FM281500 VRB03KT P6SM SCT040=



000
FTUS41 KCTP 281143
TAFJST
TAF
KJST 281143Z 2812/2912 00000KT 1SM BR BKN005
      TEMPO 2814/2815 2SM BR SCT004
     FM281500 15003KT 4SM BR SKC
     FM281600 14005KT P6SM SKC=



000
FTUS41 KCTP 281143
TAFUNV
TAF
KUNV 281143Z 2812/2912 00000KT 1/4SM FG OVC001
      TEMPO 2813/2815 2SM BR SKC
     FM281500 00000KT 4SM BR SCT007
     FM281600 VRB03KT P6SM SCT040
     FM290600 00000KT 2SM BR SCT250
     FM290900 00000KT 1/2SM FG SKC=



000
FTUS41 KCTP 281143
TAFIPT
TAF
KIPT 281143Z 2812/2912 27004KT 1/2SM FG OVC002
      TEMPO 2813/2814 2SM BR SCT002
     FM281400 00000KT 4SM BR SCT003
     FM281500 VRB03KT P6SM SCT040=



000
FTUS41 KCTP 281143
TAFBFD
TAF
KBFD 281143Z 2812/2912 00000KT P6SM SKC
     FM281300 VRB03KT P6SM SKC
     FM290300 00000KT 2SM BR BKN250=



000
FTUS41 KCTP 281143
TAFMDT
TAF
KMDT 281143Z 2812/2912 00000KT 2SM BR OVC003
      TEMPO 2813/2814 4SM BR SCT003
     FM281400 VRB03KT P6SM FEW040
     FM290600 00000KT 4SM BR SKC=



000
FTUS41 KCTP 281143
TAFAOO
TAF
KAOO 281143Z 2812/2912 00000KT 0SM FG VV001
      TEMPO 2814/2815 2SM BR SCT004
     FM281500 12002KT 4SM BR OVC015
     FM281600 VRB03KT P6SM FEW040
     FM290600 00000KT 2SM BR SCT250=



000
FTUS41 KCTP 281143
TAFJST
TAF
KJST 281143Z 2812/2912 00000KT 1SM BR BKN005
      TEMPO 2814/2815 2SM BR SCT004
     FM281500 15003KT 4SM BR SKC
     FM281600 14005KT P6SM SKC=



000
FTUS41 KCTP 281143
TAFBFD
TAF
KBFD 281143Z 2812/2912 00000KT P6SM SKC
     FM281300 VRB03KT P6SM SKC
     FM290300 00000KT 2SM BR BKN250=



000
FTUS41 KCTP 281143
TAFAOO
TAF
KAOO 281143Z 2812/2912 00000KT 0SM FG VV001
      TEMPO 2814/2815 2SM BR SCT004
     FM281500 12002KT 4SM BR OVC015
     FM281600 VRB03KT P6SM FEW040
     FM290600 00000KT 2SM BR SCT250=



000
FTUS41 KCTP 281143
TAFMDT
TAF
KMDT 281143Z 2812/2912 00000KT 2SM BR OVC003
      TEMPO 2813/2814 4SM BR SCT003
     FM281400 VRB03KT P6SM FEW040
     FM290600 00000KT 4SM BR SKC=



000
FTUS41 KCTP 281143
TAFIPT
TAF
KIPT 281143Z 2812/2912 27004KT 1/2SM FG OVC002
      TEMPO 2813/2814 2SM BR SCT002
     FM281400 00000KT 4SM BR SCT003
     FM281500 VRB03KT P6SM SCT040=



000
FTUS41 KCTP 281143
TAFUNV
TAF
KUNV 281143Z 2812/2912 00000KT 1/4SM FG OVC001
      TEMPO 2813/2815 2SM BR SKC
     FM281500 00000KT 4SM BR SCT007
     FM281600 VRB03KT P6SM SCT040
     FM290600 00000KT 2SM BR SCT250
     FM290900 00000KT 1/2SM FG SKC=



000
FTUS41 KCTP 281143
TAFBFD
TAF
KBFD 281143Z 2812/2912 00000KT P6SM SKC
     FM281300 VRB03KT P6SM SKC
     FM290300 00000KT 2SM BR BKN250=



000
FTUS41 KCTP 281143
TAFJST
TAF
KJST 281143Z 2812/2912 00000KT 1SM BR BKN005
      TEMPO 2814/2815 2SM BR SCT004
     FM281500 15003KT 4SM BR SKC
     FM281600 14005KT P6SM SKC=



000
FTUS41 KCTP 281143
TAFAOO
TAF
KAOO 281143Z 2812/2912 00000KT 0SM FG VV001
      TEMPO 2814/2815 2SM BR SCT004
     FM281500 12002KT 4SM BR OVC015
     FM281600 VRB03KT P6SM FEW040
     FM290600 00000KT 2SM BR SCT250=



000
FTUS41 KCTP 280931 AAB
TAFBFD
TAF AMD
KBFD 280931Z 2810/2906 00000KT P6SM SKC
     FM281300 VRB03KT P6SM SKC=



000
FTUS41 KCTP 280931 AAC
TAFJST
TAF AMD
KJST 280931Z 2810/2906 00000KT 1/4SM FG VV004
      TEMPO 2812/2813 2SM BR SCT004
     FM281300 15003KT 4SM BR SKC
     FM281400 14005KT P6SM SKC=



000
FTUS41 KCTP 280931 AAB
TAFUNV
TAF AMD
KUNV 280931Z 2810/2906 00000KT 0SM FG OVC001
      TEMPO 2812/2814 2SM BR SKC
     FM281400 00000KT 4SM BR SCT007
     FM281500 VRB03KT P6SM SCT040=



000
FTUS41 KCTP 280931 AAB
TAFUNV
TAF AMD
KUNV 280931Z 2810/2906 00000KT 0SM FG OVC001
      TEMPO 2812/2814 2SM BR SKC
     FM281400 00000KT 4SM BR SCT007
     FM281500 VRB03KT P6SM SCT040=



000
FTUS41 KCTP 280931 AAE
TAFIPT
TAF AMD
KIPT 280931Z 2810/2906 00000KT 1 1/2SM BR OVC003
     FM281300 00000KT 4SM BR SCT003
     FM281400 VRB03KT P6SM SCT040=



000
FTUS41 KCTP 280931 AAE
TAFIPT
TAF AMD
KIPT 280931Z 2810/2906 00000KT 1 1/2SM BR OVC003
     FM281300 00000KT 4SM BR SCT003
     FM281400 VRB03KT P6SM SCT040=



000
FTUS41 KCTP 280931 AAA
TAFMDT
TAF AMD
KMDT 280931Z 2810/2906 00000KT 4SM BR FEW250
      TEMPO 2810/2811 2SM BR
     FM281200 VRB03KT P6SM FEW040=



000
FTUS41 KCTP 280931 AAD
TAFAOO
TAF AMD
KAOO 280931Z 2810/2906 00000KT 1/4SM FG VV002
      TEMPO 2812/2813 2SM BR SCT004
     FM281300 12002KT 4SM BR OVC015
     FM281500 VRB03KT P6SM FEW040=



000
FTUS41 KCTP 280931 AAD
TAFAOO
TAF AMD
KAOO 280931Z 2810/2906 00000KT 1/4SM FG VV002
      TEMPO 2812/2813 2SM BR SCT004
     FM281300 12002KT 4SM BR OVC015
     FM281500 VRB03KT P6SM FEW040=



000
FTUS41 KCTP 280931 AAC
TAFJST
TAF AMD
KJST 280931Z 2810/2906 00000KT 1/4SM FG VV004
      TEMPO 2812/2813 2SM BR SCT004
     FM281300 15003KT 4SM BR SKC
     FM281400 14005KT P6SM SKC=



000
FTUS41 KCTP 280931 AAA
TAFMDT
TAF AMD
KMDT 280931Z 2810/2906 00000KT 4SM BR FEW250
      TEMPO 2810/2811 2SM BR
     FM281200 VRB03KT P6SM FEW040=



000
FTUS41 KCTP 280751 AAB
TAFJST
TAF AMD
KJST 280751Z 2808/2906 08004KT 1SM BR VV003
     FM280900 12003KT 2SM BR SCT010
     FM281200 15003KT 4SM BR SKC
     FM281400 14005KT P6SM SKC=



000
FTUS41 KCTP 280751 AAB
TAFJST
TAF AMD
KJST 280751Z 2808/2906 08004KT 1SM BR VV003
     FM280900 12003KT 2SM BR SCT010
     FM281200 15003KT 4SM BR SKC
     FM281400 14005KT P6SM SKC=



000
FTUS41 KCTP 280750 AAD
TAFIPT
TAF AMD
KIPT 280750Z 2808/2906 00000KT 4SM BR OVC004
     FM281200 00000KT 2SM BR SCT003
     FM281400 VRB03KT P6SM SCT040=



000
FTUS41 KCTP 280750 AAC
TAFAOO
TAF AMD
KAOO 280750Z 2808/2906 00000KT 1/4SM FG VV009
     FM280900 00000KT 1SM BR BKN010
     FM281200 VRB03KT P6SM FEW040=



000
FTUS41 KCTP 280750 AAC
TAFAOO
TAF AMD
KAOO 280750Z 2808/2906 00000KT 1/4SM FG VV009
     FM280900 00000KT 1SM BR BKN010
     FM281200 VRB03KT P6SM FEW040=



000
FTUS41 KCTP 280740 AAC
TAFIPT
TAF AMD
KIPT 280740Z 2808/2906 00000KT 5SM BR OVC005
     FM281200 00000KT 2SM BR SCT003
     FM281400 VRB03KT P6SM SCT040=



000
FTUS41 KCTP 280740 AAA
TAFUNV
TAF AMD
KUNV 280740Z 2808/2906 00000KT 3/4SM BR VV005
      TEMPO 2808/2810 2SM BR SKC
     FM281400 00000KT 4SM BR SCT007
     FM281500 VRB03KT P6SM SCT040=



000
FTUS41 KCTP 280740 AAC
TAFIPT
TAF AMD
KIPT 280740Z 2808/2906 00000KT 5SM BR OVC005
     FM281200 00000KT 2SM BR SCT003
     FM281400 VRB03KT P6SM SCT040=



000
FTUS41 KCTP 280740 AAC
TAFIPT
TAF AMD
KIPT 280740Z 2808/2906 00000KT 5SM BR OVC005
     FM281200 00000KT 2SM BR SCT003
     FM281400 VRB03KT P6SM SCT040=



000
FTUS41 KCTP 280740 AAA
TAFUNV
TAF AMD
KUNV 280740Z 2808/2906 00000KT 3/4SM BR VV005
      TEMPO 2808/2810 2SM BR SKC
     FM281400 00000KT 4SM BR SCT007
     FM281500 VRB03KT P6SM SCT040=



000
FTUS41 KCTP 280740 AAA
TAFUNV
TAF AMD
KUNV 280740Z 2808/2906 00000KT 3/4SM BR VV005
      TEMPO 2808/2810 2SM BR SKC
     FM281400 00000KT 4SM BR SCT007
     FM281500 VRB03KT P6SM SCT040=



000
FTUS41 KCTP 280739 AAB
TAFAOO
TAF AMD
KAOO 280739Z 2808/2906 00000KT 3/4SM BR VV013
     FM280900 00000KT 1SM BR BKN010
     FM281200 VRB03KT P6SM FEW040=



000
FTUS41 KCTP 280739 AAB
TAFAOO
TAF AMD
KAOO 280739Z 2808/2906 00000KT 3/4SM BR VV013
     FM280900 00000KT 1SM BR BKN010
     FM281200 VRB03KT P6SM FEW040=



000
FTUS41 KCTP 280739 AAB
TAFAOO
TAF AMD
KAOO 280739Z 2808/2906 00000KT 3/4SM BR VV013
     FM280900 00000KT 1SM BR BKN010
     FM281200 VRB03KT P6SM FEW040=



000
FTUS41 KCTP 280739 AAB
TAFAOO
TAF AMD
KAOO 280739Z 2808/2906 00000KT 3/4SM BR VV013
     FM280900 00000KT 1SM BR BKN010
     FM281200 VRB03KT P6SM FEW040=



000
FTUS41 KCTP 280738 AAA
TAFJST
TAF AMD
KJST 280738Z 2808/2906 09003KT 2SM BR SKC
     FM280900 12003KT 2SM BR SCT010
     FM281200 15003KT 4SM BR SKC
     FM281400 14005KT P6SM SKC=



000
FTUS41 KCTP 280738 AAA
TAFJST
TAF AMD
KJST 280738Z 2808/2906 09003KT 2SM BR SKC
     FM280900 12003KT 2SM BR SCT010
     FM281200 15003KT 4SM BR SKC
     FM281400 14005KT P6SM SKC=



000
FTUS41 KCTP 280738 AAA
TAFJST
TAF AMD
KJST 280738Z 2808/2906 09003KT 2SM BR SKC
     FM280900 12003KT 2SM BR SCT010
     FM281200 15003KT 4SM BR SKC
     FM281400 14005KT P6SM SKC=



000
FTUS41 KCTP 280717 AAB
TAFIPT
TAF AMD
KIPT 280717Z 2807/2906 00000KT 5SM BR BKN006
     FM281200 00000KT 2SM BR SCT003
     FM281400 VRB03KT P6SM SCT040=



000
FTUS41 KCTP 280717 AAB
TAFIPT
TAF AMD
KIPT 280717Z 2807/2906 00000KT 5SM BR BKN006
     FM281200 00000KT 2SM BR SCT003
     FM281400 VRB03KT P6SM SCT040=



000
FTUS41 KCTP 280717 AAA
TAFAOO
TAF AMD
KAOO 280717Z 2807/2906 00000KT 1 1/2SM BR SKC
     FM280900 00000KT 1SM BR BKN010
     FM281200 VRB03KT P6SM FEW040=



000
FTUS41 KCTP 280717 AAA
TAFAOO
TAF AMD
KAOO 280717Z 2807/2906 00000KT 1 1/2SM BR SKC
     FM280900 00000KT 1SM BR BKN010
     FM281200 VRB03KT P6SM FEW040=



000
FTUS41 KCTP 280705 AAA
TAFBFD
TAF AMD
KBFD 280705Z 2807/2906 00000KT P6SM SKC
     FM280900 00000KT 1/2SM FG BKN003
     FM281200 00000KT 4SM BR BKN007
     FM281300 VRB03KT P6SM SKC=



000
FTUS41 KCTP 280705 AAA
TAFBFD
TAF AMD
KBFD 280705Z 2807/2906 00000KT P6SM SKC
     FM280900 00000KT 1/2SM FG BKN003
     FM281200 00000KT 4SM BR BKN007
     FM281300 VRB03KT P6SM SKC=



000
FTUS41 KCTP 280705 AAA
TAFBFD
TAF AMD
KBFD 280705Z 2807/2906 00000KT P6SM SKC
     FM280900 00000KT 1/2SM FG BKN003
     FM281200 00000KT 4SM BR BKN007
     FM281300 VRB03KT P6SM SKC=



000
FTUS41 KCTP 280705 AAA
TAFIPT
TAF AMD
KIPT 280705Z 2807/2906 00000KT 5SM BR BKN004
     FM281200 00000KT 2SM BR SCT003
     FM281400 VRB03KT P6SM SCT040=



000
FTUS41 KCTP 280705 AAA
TAFIPT
TAF AMD
KIPT 280705Z 2807/2906 00000KT 5SM BR BKN004
     FM281200 00000KT 2SM BR SCT003
     FM281400 VRB03KT P6SM SCT040=



000
FTUS41 KCTP 280601 RRA
TAFIPT
TAF
KIPT 280601Z 2806/2906 29003KT 5SM BR SKC
     FM280700 00000KT 3/4SM BR BKN003
     FM281200 00000KT 2SM BR SCT003
     FM281400 VRB03KT P6SM SCT040=



000
FTUS41 KCTP 280601 RRA
TAFIPT
TAF
KIPT 280601Z 2806/2906 29003KT 5SM BR SKC
     FM280700 00000KT 3/4SM BR BKN003
     FM281200 00000KT 2SM BR SCT003
     FM281400 VRB03KT P6SM SCT040=



000
FTUS41 KCTP 280601 RRA
TAFUNV
TAF
KUNV 280601Z 2806/2906 00000KT 3/4SM BR VV005
     FM280800 00000KT 1SM BR BKN007
     FM281400 00000KT 4SM BR SCT007
     FM281500 VRB03KT P6SM SCT040=



000
FTUS41 KCTP 280601 RRA
TAFUNV
TAF
KUNV 280601Z 2806/2906 00000KT 3/4SM BR VV005
     FM280800 00000KT 1SM BR BKN007
     FM281400 00000KT 4SM BR SCT007
     FM281500 VRB03KT P6SM SCT040=



000
FTUS41 KCTP 280533
TAFAOO
TAF
KAOO 280533Z 2806/2906 00000KT 5SM BR OVC090
     FM280800 00000KT 1SM BR BKN010
     FM281200 VRB03KT P6SM FEW040=



000
FTUS41 KCTP 280533
TAFIPT
TAF
KIPT 280533Z 2806/2906 36003KT 6SM BR SKC
     FM280700 00000KT 3/4SM BR BKN003
     FM281200 00000KT 2SM BR SCT003
     FM281400 VRB03KT P6SM SCT040=



000
FTUS41 KCTP 280533
TAFMDT
TAF
KMDT 280533Z 2806/2906 11004KT P6SM FEW050 BKN250
     FM280800 00000KT 4SM BR SKC
      TEMPO 2808/2811 2SM BR
     FM281200 VRB03KT P6SM FEW040=



000
FTUS41 KCTP 280533
TAFBFD
TAF
KBFD 280533Z 2806/2906 00000KT P6SM SKC
     FM280700 00000KT 1/2SM FG BKN003
     FM281200 00000KT 4SM BR BKN007
     FM281300 VRB03KT P6SM SKC=



000
FTUS41 KCTP 280533
TAFUNV
TAF
KUNV 280533Z 2806/2906 00000KT 2SM BR SKC
     FM280800 00000KT 1SM BR BKN007
     FM281400 00000KT 4SM BR SCT007
     FM281500 VRB03KT P6SM SCT040=



000
FTUS41 KCTP 280533
TAFJST
TAF
KJST 280533Z 2806/2906 00000KT 5SM BR SKC
     FM280900 12003KT 2SM BR SCT010
     FM281200 15003KT 4SM BR SKC
     FM281400 14005KT P6SM SKC=



000
FTUS41 KCTP 280533
TAFUNV
TAF
KUNV 280533Z 2806/2906 00000KT 2SM BR SKC
     FM280800 00000KT 1SM BR BKN007
     FM281400 00000KT 4SM BR SCT007
     FM281500 VRB03KT P6SM SCT040=



000
FTUS41 KCTP 280533
TAFJST
TAF
KJST 280533Z 2806/2906 00000KT 5SM BR SKC
     FM280900 12003KT 2SM BR SCT010
     FM281200 15003KT 4SM BR SKC
     FM281400 14005KT P6SM SKC=



000
FTUS41 KCTP 280533
TAFAOO
TAF
KAOO 280533Z 2806/2906 00000KT 5SM BR OVC090
     FM280800 00000KT 1SM BR BKN010
     FM281200 VRB03KT P6SM FEW040=



000
FTUS41 KCTP 280533
TAFBFD
TAF
KBFD 280533Z 2806/2906 00000KT P6SM SKC
     FM280700 00000KT 1/2SM FG BKN003
     FM281200 00000KT 4SM BR BKN007
     FM281300 VRB03KT P6SM SKC=



000
FTUS41 KCTP 280533
TAFIPT
TAF
KIPT 280533Z 2806/2906 36003KT 6SM BR SKC
     FM280700 00000KT 3/4SM BR BKN003
     FM281200 00000KT 2SM BR SCT003
     FM281400 VRB03KT P6SM SCT040=



000
FTUS41 KCTP 280533
TAFMDT
TAF
KMDT 280533Z 2806/2906 11004KT P6SM FEW050 BKN250
     FM280800 00000KT 4SM BR SKC
      TEMPO 2808/2811 2SM BR
     FM281200 VRB03KT P6SM FEW040=



000
FTUS41 KCTP 280335 AAB
TAFAOO
TAF AMD
KAOO 280335Z 2804/2824 VRB01KT 6SM BR VCSH SCT070
     FM280500 00000KT 4SM BR FEW060
     FM280800 00000KT 1SM BR BKN010
     FM281300 VRB03KT P6SM FEW040=



000
FTUS41 KCTP 280335 AAA
TAFBFD
TAF AMD
KBFD 280335Z 2804/2824 00000KT P6SM SKC
     FM280500 00000KT 3SM BR SKC
     FM280700 00000KT 1/2SM FG BKN003
     FM281100 00000KT 4SM BR BKN007
     FM281300 VRB03KT P6SM SKC=



000
FTUS41 KCTP 280335 AAC
TAFJST
TAF AMD
KJST 280335Z 2804/2824 00000KT 6SM HZ BKN045
     FM280700 12003KT 2SM BR SCT010
     FM281200 15003KT 4SM BR SKC
     FM281300 14005KT P6SM SKC=



000
FTUS41 KCTP 280335 AAA
TAFUNV
TAF AMD
KUNV 280335Z 2804/2824 VRB03KT P6SM FEW040
     FM280600 00000KT 4SM BR SKC
     FM280800 00000KT 1SM BR BKN010
     FM281300 VRB03KT P6SM SCT040=



000
FTUS41 KCTP 280335 AAA
TAFUNV
TAF AMD
KUNV 280335Z 2804/2824 VRB03KT P6SM FEW040
     FM280600 00000KT 4SM BR SKC
     FM280800 00000KT 1SM BR BKN010
     FM281300 VRB03KT P6SM SCT040=



000
FTUS41 KCTP 280335 AAA
TAFMDT
TAF AMD
KMDT 280335Z 2804/2824 00000KT P6SM BKN045
     FM280600 00000KT 4SM BR SCT050
      TEMPO 2808/2811 2SM BR
     FM281200 VRB03KT P6SM FEW040=



000
FTUS41 KCTP 280335 AAB
TAFIPT
TAF AMD
KIPT 280335Z 2804/2824 VRB01KT 6SM BR SCT250
     FM280500 00000KT 4SM BR SCT250
     FM280700 00000KT 3/4SM BR BKN003
     FM281200 00000KT 2SM BR SCT003
     FM281300 VRB03KT P6SM SCT040=



000
FTUS41 KCTP 280335 AAB
TAFAOO
TAF AMD
KAOO 280335Z 2804/2824 VRB01KT 6SM BR VCSH SCT070
     FM280500 00000KT 4SM BR FEW060
     FM280800 00000KT 1SM BR BKN010
     FM281300 VRB03KT P6SM FEW040=



000
FTUS41 KCTP 280335 AAA
TAFMDT
TAF AMD
KMDT 280335Z 2804/2824 00000KT P6SM BKN045
     FM280600 00000KT 4SM BR SCT050
      TEMPO 2808/2811 2SM BR
     FM281200 VRB03KT P6SM FEW040=



000
FTUS41 KCTP 280335 AAB
TAFIPT
TAF AMD
KIPT 280335Z 2804/2824 VRB01KT 6SM BR SCT250
     FM280500 00000KT 4SM BR SCT250
     FM280700 00000KT 3/4SM BR BKN003
     FM281200 00000KT 2SM BR SCT003
     FM281300 VRB03KT P6SM SCT040=



000
FTUS41 KCTP 280335 AAC
TAFJST
TAF AMD
KJST 280335Z 2804/2824 00000KT 6SM HZ BKN045
     FM280700 12003KT 2SM BR SCT010
     FM281200 15003KT 4SM BR SKC
     FM281300 14005KT P6SM SKC=



000
FTUS41 KCTP 280335 AAB
TAFAOO
TAF AMD
KAOO 280335Z 2804/2824 VRB01KT 6SM BR VCSH SCT070
     FM280500 00000KT 4SM BR FEW060
     FM280800 00000KT 1SM BR BKN010
     FM281300 VRB03KT P6SM FEW040=



000
FTUS41 KCTP 280335 AAA
TAFBFD
TAF AMD
KBFD 280335Z 2804/2824 00000KT P6SM SKC
     FM280500 00000KT 3SM BR SKC
     FM280700 00000KT 1/2SM FG BKN003
     FM281100 00000KT 4SM BR BKN007
     FM281300 VRB03KT P6SM SKC=



000
FTUS41 KCTP 280335 AAA
TAFUNV
TAF AMD
KUNV 280335Z 2804/2824 VRB03KT P6SM FEW040
     FM280600 00000KT 4SM BR SKC
     FM280800 00000KT 1SM BR BKN010
     FM281300 VRB03KT P6SM SCT040=



000
FTUS41 KCTP 280335 AAA
TAFMDT
TAF AMD
KMDT 280335Z 2804/2824 00000KT P6SM BKN045
     FM280600 00000KT 4SM BR SCT050
      TEMPO 2808/2811 2SM BR
     FM281200 VRB03KT P6SM FEW040=



000
FTUS41 KCTP 280335 AAC
TAFJST
TAF AMD
KJST 280335Z 2804/2824 00000KT 6SM HZ BKN045
     FM280700 12003KT 2SM BR SCT010
     FM281200 15003KT 4SM BR SKC
     FM281300 14005KT P6SM SKC=



000
FTUS41 KCTP 280335 AAB
TAFIPT
TAF AMD
KIPT 280335Z 2804/2824 VRB01KT 6SM BR SCT250
     FM280500 00000KT 4SM BR SCT250
     FM280700 00000KT 3/4SM BR BKN003
     FM281200 00000KT 2SM BR SCT003
     FM281300 VRB03KT P6SM SCT040=



000
FTUS41 KCTP 280335 AAB
TAFAOO
TAF AMD
KAOO 280335Z 2804/2824 VRB01KT 6SM BR VCSH SCT070
     FM280500 00000KT 4SM BR FEW060
     FM280800 00000KT 1SM BR BKN010
     FM281300 VRB03KT P6SM FEW040=



000
FTUS41 KCTP 280335 AAA
TAFUNV
TAF AMD
KUNV 280335Z 2804/2824 VRB03KT P6SM FEW040
     FM280600 00000KT 4SM BR SKC
     FM280800 00000KT 1SM BR BKN010
     FM281300 VRB03KT P6SM SCT040=



000
FTUS41 KCTP 280335 AAA
TAFBFD
TAF AMD
KBFD 280335Z 2804/2824 00000KT P6SM SKC
     FM280500 00000KT 3SM BR SKC
     FM280700 00000KT 1/2SM FG BKN003
     FM281100 00000KT 4SM BR BKN007
     FM281300 VRB03KT P6SM SKC=



000
FTUS41 KCTP 280335 AAA
TAFMDT
TAF AMD
KMDT 280335Z 2804/2824 00000KT P6SM BKN045
     FM280600 00000KT 4SM BR SCT050
      TEMPO 2808/2811 2SM BR
     FM281200 VRB03KT P6SM FEW040=



000
FTUS41 KCTP 280335 AAC
TAFJST
TAF AMD
KJST 280335Z 2804/2824 00000KT 6SM HZ BKN045
     FM280700 12003KT 2SM BR SCT010
     FM281200 15003KT 4SM BR SKC
     FM281300 14005KT P6SM SKC=



000
FTUS41 KCTP 280335 AAB
TAFIPT
TAF AMD
KIPT 280335Z 2804/2824 VRB01KT 6SM BR SCT250
     FM280500 00000KT 4SM BR SCT250
     FM280700 00000KT 3/4SM BR BKN003
     FM281200 00000KT 2SM BR SCT003
     FM281300 VRB03KT P6SM SCT040=



000
FTUS41 KCTP 280335 AAA
TAFBFD
TAF AMD
KBFD 280335Z 2804/2824 00000KT P6SM SKC
     FM280500 00000KT 3SM BR SKC
     FM280700 00000KT 1/2SM FG BKN003
     FM281100 00000KT 4SM BR BKN007
     FM281300 VRB03KT P6SM SKC=



000
FTUS41 KCTP 280314 AAA
TAFIPT
TAF AMD
KIPT 280314Z 2803/2824 VRB01KT P6SM FEW040
     FM280500 00000KT 4SM BR SKC
     FM280700 00000KT 3/4SM BR BKN003
     FM281200 00000KT 2SM BR SCT003
     FM281300 VRB03KT P6SM SCT040=



000
FTUS41 KCTP 280232 AAB
TAFJST
TAF AMD
KJST 280232Z 2803/2824 00000KT 6SM HZ FEW050
     FM280700 12003KT 2SM BR SKC
     FM281200 15003KT 4SM BR SKC
     FM281300 14005KT P6SM SKC=



000
FTUS41 KCTP 280232 AAB
TAFJST
TAF AMD
KJST 280232Z 2803/2824 00000KT 6SM HZ FEW050
     FM280700 12003KT 2SM BR SKC
     FM281200 15003KT 4SM BR SKC
     FM281300 14005KT P6SM SKC=



000
FTUS41 KCTP 280143 AAA
TAFAOO
TAF AMD
KAOO 280143Z 2802/2824 VRB03KT P6SM VCSH FEW040
     FM280400 00000KT 4SM BR SKC
     FM280800 00000KT 1SM BR SKC
     FM281300 VRB03KT P6SM FEW040=



000
FTUS41 KCTP 280143 AAA
TAFAOO
TAF AMD
KAOO 280143Z 2802/2824 VRB03KT P6SM VCSH FEW040
     FM280400 00000KT 4SM BR SKC
     FM280800 00000KT 1SM BR SKC
     FM281300 VRB03KT P6SM FEW040=



000
FTUS41 KCTP 280020 AAA
TAFJST
TAF AMD
KJST 280020Z 2800/2824 09004KT 5SM HZ FEW050
     FM280700 12003KT 2SM BR SKC
     FM281200 15003KT 4SM BR SKC
     FM281300 14005KT P6SM SKC=



000
FTUS41 KCTP 280020 AAA
TAFJST
TAF AMD
KJST 280020Z 2800/2824 09004KT 5SM HZ FEW050
     FM280700 12003KT 2SM BR SKC
     FM281200 15003KT 4SM BR SKC
     FM281300 14005KT P6SM SKC=



000
FTUS41 KCTP 280020 AAA
TAFJST
TAF AMD
KJST 280020Z 2800/2824 09004KT 5SM HZ FEW050
     FM280700 12003KT 2SM BR SKC
     FM281200 15003KT 4SM BR SKC
     FM281300 14005KT P6SM SKC=



000
FTUS41 KCTP 280020 AAA
TAFJST
TAF AMD
KJST 280020Z 2800/2824 09004KT 5SM HZ FEW050
     FM280700 12003KT 2SM BR SKC
     FM281200 15003KT 4SM BR SKC
     FM281300 14005KT P6SM SKC=



000
FTUS41 KCTP 272339
TAFBFD
TAF
KBFD 272339Z 2800/2824 04004KT P6SM SKC
     FM280500 00000KT 3SM BR SKC
     FM280700 00000KT 1/2SM FG SKC
     FM281100 00000KT 4SM BR SKC
     FM281300 VRB03KT P6SM SKC=



000
FTUS41 KCTP 272339
TAFMDT
TAF
KMDT 272339Z 2800/2824 VRB02KT P6SM FEW045
     FM280400 00000KT 4SM BR SKC
     FM281200 VRB03KT P6SM FEW040=



000
FTUS41 KCTP 272339
TAFJST
TAF
KJST 272339Z 2800/2824 09004KT P6SM FEW040
     FM280700 12003KT 2SM BR SKC
     FM281200 15003KT 4SM BR SKC
     FM281300 14005KT P6SM SKC=



000
FTUS41 KCTP 272339
TAFAOO
TAF
KAOO 272339Z 2800/2824 VRB03KT P6SM FEW040
     FM280400 00000KT 4SM BR SKC
     FM280800 00000KT 1SM BR SKC
     FM281300 VRB03KT P6SM FEW040=



000
FTUS41 KCTP 272339
TAFIPT
TAF
KIPT 272339Z 2800/2824 VRB03KT P6SM FEW040
     FM280300 00000KT 4SM BR SKC
     FM280700 00000KT 3/4SM BR BKN003
     FM281200 00000KT 2SM BR SCT003
     FM281300 VRB03KT P6SM SCT040=



000
FTUS41 KCTP 272339
TAFUNV
TAF
KUNV 272339Z 2800/2824 VRB03KT P6SM FEW040
     FM280400 00000KT 4SM BR SKC
     FM280800 00000KT 1SM BR SKC
     FM281300 VRB03KT P6SM SCT040=



000
FTUS41 KCTP 272339
TAFIPT
TAF
KIPT 272339Z 2800/2824 VRB03KT P6SM FEW040
     FM280300 00000KT 4SM BR SKC
     FM280700 00000KT 3/4SM BR BKN003
     FM281200 00000KT 2SM BR SCT003
     FM281300 VRB03KT P6SM SCT040=



000
FTUS41 KCTP 272339
TAFBFD
TAF
KBFD 272339Z 2800/2824 04004KT P6SM SKC
     FM280500 00000KT 3SM BR SKC
     FM280700 00000KT 1/2SM FG SKC
     FM281100 00000KT 4SM BR SKC
     FM281300 VRB03KT P6SM SKC=



000
FTUS41 KCTP 272339
TAFUNV
TAF
KUNV 272339Z 2800/2824 VRB03KT P6SM FEW040
     FM280400 00000KT 4SM BR SKC
     FM280800 00000KT 1SM BR SKC
     FM281300 VRB03KT P6SM SCT040=



000
FTUS41 KCTP 272339
TAFMDT
TAF
KMDT 272339Z 2800/2824 VRB02KT P6SM FEW045
     FM280400 00000KT 4SM BR SKC
     FM281200 VRB03KT P6SM FEW040=



000
FTUS41 KCTP 272339
TAFJST
TAF
KJST 272339Z 2800/2824 09004KT P6SM FEW040
     FM280700 12003KT 2SM BR SKC
     FM281200 15003KT 4SM BR SKC
     FM281300 14005KT P6SM SKC=



000
FTUS41 KCTP 272339
TAFAOO
TAF
KAOO 272339Z 2800/2824 VRB03KT P6SM FEW040
     FM280400 00000KT 4SM BR SKC
     FM280800 00000KT 1SM BR SKC
     FM281300 VRB03KT P6SM FEW040=



000
FTUS41 KCTP 272339
TAFIPT
TAF
KIPT 272339Z 2800/2824 VRB03KT P6SM FEW040
     FM280300 00000KT 4SM BR SKC
     FM280700 00000KT 3/4SM BR BKN003
     FM281200 00000KT 2SM BR SCT003
     FM281300 VRB03KT P6SM SCT040=



000
FTUS41 KCTP 272339
TAFUNV
TAF
KUNV 272339Z 2800/2824 VRB03KT P6SM FEW040
     FM280400 00000KT 4SM BR SKC
     FM280800 00000KT 1SM BR SKC
     FM281300 VRB03KT P6SM SCT040=



000
FTUS41 KCTP 272339
TAFAOO
TAF
KAOO 272339Z 2800/2824 VRB03KT P6SM FEW040
     FM280400 00000KT 4SM BR SKC
     FM280800 00000KT 1SM BR SKC
     FM281300 VRB03KT P6SM FEW040=



000
FTUS41 KCTP 272339
TAFJST
TAF
KJST 272339Z 2800/2824 09004KT P6SM FEW040
     FM280700 12003KT 2SM BR SKC
     FM281200 15003KT 4SM BR SKC
     FM281300 14005KT P6SM SKC=



000
FTUS41 KCTP 272339
TAFUNV
TAF
KUNV 272339Z 2800/2824 VRB03KT P6SM FEW040
     FM280400 00000KT 4SM BR SKC
     FM280800 00000KT 1SM BR SKC
     FM281300 VRB03KT P6SM SCT040=



000
FTUS41 KCTP 272339
TAFBFD
TAF
KBFD 272339Z 2800/2824 04004KT P6SM SKC
     FM280500 00000KT 3SM BR SKC
     FM280700 00000KT 1/2SM FG SKC
     FM281100 00000KT 4SM BR SKC
     FM281300 VRB03KT P6SM SKC=



000
FTUS41 KCTP 272339
TAFBFD
TAF
KBFD 272339Z 2800/2824 04004KT P6SM SKC
     FM280500 00000KT 3SM BR SKC
     FM280700 00000KT 1/2SM FG SKC
     FM281100 00000KT 4SM BR SKC
     FM281300 VRB03KT P6SM SKC=



000
FTUS41 KCTP 272339
TAFMDT
TAF
KMDT 272339Z 2800/2824 VRB02KT P6SM FEW045
     FM280400 00000KT 4SM BR SKC
     FM281200 VRB03KT P6SM FEW040=



000
FTUS41 KCTP 272339
TAFJST
TAF
KJST 272339Z 2800/2824 09004KT P6SM FEW040
     FM280700 12003KT 2SM BR SKC
     FM281200 15003KT 4SM BR SKC
     FM281300 14005KT P6SM SKC=



000
FTUS41 KCTP 272339
TAFMDT
TAF
KMDT 272339Z 2800/2824 VRB02KT P6SM FEW045
     FM280400 00000KT 4SM BR SKC
     FM281200 VRB03KT P6SM FEW040=



000
FTUS41 KCTP 272339
TAFIPT
TAF
KIPT 272339Z 2800/2824 VRB03KT P6SM FEW040
     FM280300 00000KT 4SM BR SKC
     FM280700 00000KT 3/4SM BR BKN003
     FM281200 00000KT 2SM BR SCT003
     FM281300 VRB03KT P6SM SCT040=



000
FTUS41 KCTP 272339
TAFAOO
TAF
KAOO 272339Z 2800/2824 VRB03KT P6SM FEW040
     FM280400 00000KT 4SM BR SKC
     FM280800 00000KT 1SM BR SKC
     FM281300 VRB03KT P6SM FEW040=



000
FTUS41 KCTP 272202 AAD
TAFMDT
TAF AMD
KMDT 272202Z 2722/2818 VRB04KT P6SM BKN045
     FM272230 VRB03KT P6SM VCTS BKN040CB
     FM280100 00000KT P6SM VCSH BKN040
     FM280300 00000KT 4SM BR SCT040
     FM281200 VRB03KT P6SM FEW040=



000
FTUS41 KCTP 272202 AAD
TAFMDT
TAF AMD
KMDT 272202Z 2722/2818 VRB04KT P6SM BKN045
     FM272230 VRB03KT P6SM VCTS BKN040CB
     FM280100 00000KT P6SM VCSH BKN040
     FM280300 00000KT 4SM BR SCT040
     FM281200 VRB03KT P6SM FEW040=



000
FTUS41 KCTP 272112 AAA
TAFBFD
TAF AMD
KBFD 272112Z 2721/2818 01005KT P6SM SKC
     FM280300 00000KT 3SM BR SKC
     FM280500 00000KT 1/2SM FG SKC
     FM280900 00000KT 4SM BR SKC
     FM281200 VRB03KT P6SM SKC=



000
FTUS41 KCTP 272112 AAA
TAFBFD
TAF AMD
KBFD 272112Z 2721/2818 01005KT P6SM SKC
     FM280300 00000KT 3SM BR SKC
     FM280500 00000KT 1/2SM FG SKC
     FM280900 00000KT 4SM BR SKC
     FM281200 VRB03KT P6SM SKC=



000
FTUS41 KCTP 272111 AAA
TAFJST
TAF AMD
KJST 272111Z 2721/2818 06007KT P6SM SCT045
     FM280700 12003KT 2SM BR SKC
     FM281200 15003KT 4SM BR SKC
     FM281300 14005KT P6SM SKC=



000
FTUS41 KCTP 272111 AAA
TAFJST
TAF AMD
KJST 272111Z 2721/2818 06007KT P6SM SCT045
     FM280700 12003KT 2SM BR SKC
     FM281200 15003KT 4SM BR SKC
     FM281300 14005KT P6SM SKC=



000
FTUS41 KCTP 272111 AAA
TAFJST
TAF AMD
KJST 272111Z 2721/2818 06007KT P6SM SCT045
     FM280700 12003KT 2SM BR SKC
     FM281200 15003KT 4SM BR SKC
     FM281300 14005KT P6SM SKC=



000
FTUS41 KCTP 272111 AAA
TAFJST
TAF AMD
KJST 272111Z 2721/2818 06007KT P6SM SCT045
     FM280700 12003KT 2SM BR SKC
     FM281200 15003KT 4SM BR SKC
     FM281300 14005KT P6SM SKC=



000
FTUS41 KCTP 272110 AAA
TAFUNV
TAF AMD
KUNV 272110Z 2721/2818 VRB03KT P6SM SCT035
     FM280100 VRB03KT P6SM FEW040
     FM280400 00000KT 4SM BR SKC
     FM280800 00000KT 1SM BR SKC
     FM281300 VRB03KT P6SM SCT040=



000
FTUS41 KCTP 272110 AAA
TAFUNV
TAF AMD
KUNV 272110Z 2721/2818 VRB03KT P6SM SCT035
     FM280100 VRB03KT P6SM FEW040
     FM280400 00000KT 4SM BR SKC
     FM280800 00000KT 1SM BR SKC
     FM281300 VRB03KT P6SM SCT040=



000
FTUS41 KCTP 272109 AAA
TAFIPT
TAF AMD
KIPT 272109Z 2721/2818 VRB03KT P6SM VCSH SCT040
     FM280100 VRB03KT P6SM FEW040
     FM280300 00000KT 4SM BR SKC
     FM280700 00000KT 3/4SM BR BKN003
     FM281200 00000KT 2SM BR SCT003
     FM281300 VRB03KT P6SM SCT040=



000
FTUS41 KCTP 272109 AAA
TAFIPT
TAF AMD
KIPT 272109Z 2721/2818 VRB03KT P6SM VCSH SCT040
     FM280100 VRB03KT P6SM FEW040
     FM280300 00000KT 4SM BR SKC
     FM280700 00000KT 3/4SM BR BKN003
     FM281200 00000KT 2SM BR SCT003
     FM281300 VRB03KT P6SM SCT040=



000
FTUS41 KCTP 272103 AAC
TAFMDT
TAF AMD
KMDT 272103Z 2721/2818 VRB03KT P6SM BKN040
     FM272200 VRB03KT P6SM VCTS BKN040CB
      TEMPO 2722/2724 3SM -TSRA OVC035CB
     FM280000 00000KT P6SM VCSH BKN040
     FM280300 00000KT 4SM BR SCT040
     FM281200 VRB03KT P6SM FEW040=



000
FTUS41 KCTP 272103 AAC
TAFMDT
TAF AMD
KMDT 272103Z 2721/2818 VRB03KT P6SM BKN040
     FM272200 VRB03KT P6SM VCTS BKN040CB
      TEMPO 2722/2724 3SM -TSRA OVC035CB
     FM280000 00000KT P6SM VCSH BKN040
     FM280300 00000KT 4SM BR SCT040
     FM281200 VRB03KT P6SM FEW040=



000
FTUS41 KCTP 272102 AAA
TAFAOO
TAF AMD
KAOO 272102Z 2721/2818 06007KT P6SM SCT040
     FM280100 VRB03KT P6SM FEW040
     FM280400 00000KT 4SM BR SKC
     FM280800 00000KT 1SM BR SKC
     FM281300 VRB03KT P6SM FEW040=



000
FTUS41 KCTP 272102 AAA
TAFAOO
TAF AMD
KAOO 272102Z 2721/2818 06007KT P6SM SCT040
     FM280100 VRB03KT P6SM FEW040
     FM280400 00000KT 4SM BR SKC
     FM280800 00000KT 1SM BR SKC
     FM281300 VRB03KT P6SM FEW040=



000
FTUS41 KCTP 271901 AAB
TAFMDT
TAF AMD
KMDT 271901Z 2719/2818 VRB03KT P6SM VCSH BKN050
     FM272000 VRB03KT P6SM VCTS BKN040CB
      TEMPO 2721/2724 3SM -TSRA OVC035CB
     FM280000 00000KT P6SM VCSH BKN040
     FM280300 00000KT 4SM BR SCT040
     FM281200 VRB03KT P6SM FEW040=



000
FTUS41 KCTP 271901 AAB
TAFMDT
TAF AMD
KMDT 271901Z 2719/2818 VRB03KT P6SM VCSH BKN050
     FM272000 VRB03KT P6SM VCTS BKN040CB
      TEMPO 2721/2724 3SM -TSRA OVC035CB
     FM280000 00000KT P6SM VCSH BKN040
     FM280300 00000KT 4SM BR SCT040
     FM281200 VRB03KT P6SM FEW040=



000
FTUS41 KCTP 271901 AAB
TAFMDT
TAF AMD
KMDT 271901Z 2719/2818 VRB03KT P6SM VCSH BKN050
     FM272000 VRB03KT P6SM VCTS BKN040CB
      TEMPO 2721/2724 3SM -TSRA OVC035CB
     FM280000 00000KT P6SM VCSH BKN040
     FM280300 00000KT 4SM BR SCT040
     FM281200 VRB03KT P6SM FEW040=



000
FTUS41 KCTP 271841 AAA
TAFMDT
TAF AMD
KMDT 271841Z 2719/2818 VRB03KT P6SM VCSH SCT030 BKN040
      TEMPO 2719/2720 BKN030
     FM272000 VRB03KT P6SM VCTS BKN040CB
      TEMPO 2721/2724 3SM -TSRA OVC035CB
     FM280000 00000KT P6SM VCSH BKN040
     FM280300 00000KT 4SM BR SCT040
     FM281200 VRB03KT P6SM FEW040=



000
FTUS41 KCTP 271841 AAA
TAFMDT
TAF AMD
KMDT 271841Z 2719/2818 VRB03KT P6SM VCSH SCT030 BKN040
      TEMPO 2719/2720 BKN030
     FM272000 VRB03KT P6SM VCTS BKN040CB
      TEMPO 2721/2724 3SM -TSRA OVC035CB
     FM280000 00000KT P6SM VCSH BKN040
     FM280300 00000KT 4SM BR SCT040
     FM281200 VRB03KT P6SM FEW040=



000
FTUS41 KCTP 271841 AAA
TAFMDT
TAF AMD
KMDT 271841Z 2719/2818 VRB03KT P6SM VCSH SCT030 BKN040
      TEMPO 2719/2720 BKN030
     FM272000 VRB03KT P6SM VCTS BKN040CB
      TEMPO 2721/2724 3SM -TSRA OVC035CB
     FM280000 00000KT P6SM VCSH BKN040
     FM280300 00000KT 4SM BR SCT040
     FM281200 VRB03KT P6SM FEW040=



000
FTUS41 KCTP 271841 AAA
TAFMDT
TAF AMD
KMDT 271841Z 2719/2818 VRB03KT P6SM VCSH SCT030 BKN040
      TEMPO 2719/2720 BKN030
     FM272000 VRB03KT P6SM VCTS BKN040CB
      TEMPO 2721/2724 3SM -TSRA OVC035CB
     FM280000 00000KT P6SM VCSH BKN040
     FM280300 00000KT 4SM BR SCT040
     FM281200 VRB03KT P6SM FEW040=



000
FTUS41 KCTP 271730
TAFIPT
TAF
KIPT 271730Z 2718/2818 VRB03KT P6SM SCT040
     FM271900 VRB03KT P6SM VCSH SCT050
     FM280100 VRB03KT P6SM FEW040
     FM280300 00000KT 4SM BR SKC
     FM280700 00000KT 3/4SM BR BKN003
     FM281200 00000KT 2SM BR SCT003
     FM281300 VRB03KT P6SM SCT040=



000
FTUS41 KCTP 271730
TAFJST
TAF
KJST 271730Z 2718/2818 VRB03KT 6SM HZ VCSH BKN040
     FM280200 15003KT 5SM BR FEW040
     FM280700 12003KT 2SM BR SKC
     FM281200 15003KT 4SM BR SKC
     FM281300 14005KT P6SM SKC=



000
FTUS41 KCTP 271730
TAFUNV
TAF
KUNV 271730Z 2718/2818 VRB03KT P6SM SCT020
     FM272000 VRB03KT P6SM VCSH BKN040
     FM280100 VRB03KT P6SM FEW040
     FM280400 00000KT 4SM BR SKC
     FM280800 00000KT 1SM BR SKC
     FM281300 VRB03KT P6SM SCT040=



000
FTUS41 KCTP 271730
TAFAOO
TAF
KAOO 271730Z 2718/2818 VRB03KT 6SM HZ BKN035
     FM272000 VRB03KT P6SM VCSH BKN040
      TEMPO 2721/2724 3SM -SHRA OVC030
     FM280100 VRB03KT P6SM FEW040
     FM280400 00000KT 4SM BR SKC
     FM280800 00000KT 1SM BR SKC
     FM281300 VRB03KT P6SM FEW040=



000
FTUS41 KCTP 271730
TAFAOO
TAF
KAOO 271730Z 2718/2818 VRB03KT 6SM HZ BKN035
     FM272000 VRB03KT P6SM VCSH BKN040
      TEMPO 2721/2724 3SM -SHRA OVC030
     FM280100 VRB03KT P6SM FEW040
     FM280400 00000KT 4SM BR SKC
     FM280800 00000KT 1SM BR SKC
     FM281300 VRB03KT P6SM FEW040=



000
FTUS41 KCTP 271730
TAFMDT
TAF
KMDT 271730Z 2718/2818 VRB03KT P6SM VCSH SCT050 BKN120
     FM272000 VRB03KT P6SM VCTS BKN050CB
      TEMPO 2721/2724 3SM -TSRA OVC035CB
     FM280000 00000KT P6SM VCSH BKN040
     FM280300 00000KT 4SM BR SCT040
     FM281200 VRB03KT P6SM FEW040=



000
FTUS41 KCTP 271730
TAFIPT
TAF
KIPT 271730Z 2718/2818 VRB03KT P6SM SCT040
     FM271900 VRB03KT P6SM VCSH SCT050
     FM280100 VRB03KT P6SM FEW040
     FM280300 00000KT 4SM BR SKC
     FM280700 00000KT 3/4SM BR BKN003
     FM281200 00000KT 2SM BR SCT003
     FM281300 VRB03KT P6SM SCT040=



000
FTUS41 KCTP 271730
TAFBFD
TAF
KBFD 271730Z 2718/2818 05005KT P6SM SCT040
     FM280300 00000KT 3SM BR SKC
     FM280500 00000KT 1/2SM FG SKC
     FM280900 00000KT 4SM BR SKC
     FM281200 VRB03KT P6SM SKC=



000
FTUS41 KCTP 271730
TAFUNV
TAF
KUNV 271730Z 2718/2818 VRB03KT P6SM SCT020
     FM272000 VRB03KT P6SM VCSH BKN040
     FM280100 VRB03KT P6SM FEW040
     FM280400 00000KT 4SM BR SKC
     FM280800 00000KT 1SM BR SKC
     FM281300 VRB03KT P6SM SCT040=



000
FTUS41 KCTP 271730
TAFBFD
TAF
KBFD 271730Z 2718/2818 05005KT P6SM SCT040
     FM280300 00000KT 3SM BR SKC
     FM280500 00000KT 1/2SM FG SKC
     FM280900 00000KT 4SM BR SKC
     FM281200 VRB03KT P6SM SKC=



000
FTUS41 KCTP 271730
TAFJST
TAF
KJST 271730Z 2718/2818 VRB03KT 6SM HZ VCSH BKN040
     FM280200 15003KT 5SM BR FEW040
     FM280700 12003KT 2SM BR SKC
     FM281200 15003KT 4SM BR SKC
     FM281300 14005KT P6SM SKC=



000
FTUS41 KCTP 271730
TAFMDT
TAF
KMDT 271730Z 2718/2818 VRB03KT P6SM VCSH SCT050 BKN120
     FM272000 VRB03KT P6SM VCTS BKN050CB
      TEMPO 2721/2724 3SM -TSRA OVC035CB
     FM280000 00000KT P6SM VCSH BKN040
     FM280300 00000KT 4SM BR SCT040
     FM281200 VRB03KT P6SM FEW040=



000
FTUS41 KCTP 271730
TAFIPT
TAF
KIPT 271730Z 2718/2818 VRB03KT P6SM SCT040
     FM271900 VRB03KT P6SM VCSH SCT050
     FM280100 VRB03KT P6SM FEW040
     FM280300 00000KT 4SM BR SKC
     FM280700 00000KT 3/4SM BR BKN003
     FM281200 00000KT 2SM BR SCT003
     FM281300 VRB03KT P6SM SCT040=



000
FTUS41 KCTP 271730
TAFJST
TAF
KJST 271730Z 2718/2818 VRB03KT 6SM HZ VCSH BKN040
     FM280200 15003KT 5SM BR FEW040
     FM280700 12003KT 2SM BR SKC
     FM281200 15003KT 4SM BR SKC
     FM281300 14005KT P6SM SKC=



000
FTUS41 KCTP 271602 AAD
TAFUNV
TAF AMD
KUNV 271602Z 2716/2812 00000KT P6SM SCT012
      TEMPO 2716/2717 BKN012
     FM271900 00000KT 6SM BR VCSH BKN040
     FM280300 00000KT 3SM BR SKC
     FM280600 00000KT 2SM BR SKC=



000
FTUS41 KCTP 271602 AAD
TAFUNV
TAF AMD
KUNV 271602Z 2716/2812 00000KT P6SM SCT012
      TEMPO 2716/2717 BKN012
     FM271900 00000KT 6SM BR VCSH BKN040
     FM280300 00000KT 3SM BR SKC
     FM280600 00000KT 2SM BR SKC=



000
FTUS41 KCTP 271602 AAD
TAFUNV
TAF AMD
KUNV 271602Z 2716/2812 00000KT P6SM SCT012
      TEMPO 2716/2717 BKN012
     FM271900 00000KT 6SM BR VCSH BKN040
     FM280300 00000KT 3SM BR SKC
     FM280600 00000KT 2SM BR SKC=



000
FTUS41 KCTP 271602 AAD
TAFUNV
TAF AMD
KUNV 271602Z 2716/2812 00000KT P6SM SCT012
      TEMPO 2716/2717 BKN012
     FM271900 00000KT 6SM BR VCSH BKN040
     FM280300 00000KT 3SM BR SKC
     FM280600 00000KT 2SM BR SKC=



000
FTUS41 KCTP 271601 AAB
TAFAOO
TAF AMD
KAOO 271601Z 2716/2812 VRB03KT P6SM SCT025 BKN035
      TEMPO 2716/2717 BKN025
     FM272000 00000KT P6SM VCSH SCT040 BKN100
     FM280300 00000KT 4SM BR SKC
     FM280600 00000KT 2SM BR SKC=



000
FTUS41 KCTP 271601 AAB
TAFAOO
TAF AMD
KAOO 271601Z 2716/2812 VRB03KT P6SM SCT025 BKN035
      TEMPO 2716/2717 BKN025
     FM272000 00000KT P6SM VCSH SCT040 BKN100
     FM280300 00000KT 4SM BR SKC
     FM280600 00000KT 2SM BR SKC=



000
FTUS41 KCTP 271503 AAC
TAFUNV
TAF AMD
KUNV 271503Z 2715/2812 00000KT P6SM SCT120
      TEMPO 2715/2716 BKN007
     FM271900 00000KT 6SM BR VCSH SCT040
     FM280300 00000KT 3SM BR SKC
     FM280600 00000KT 2SM BR SKC=



000
FTUS41 KCTP 271503 AAC
TAFUNV
TAF AMD
KUNV 271503Z 2715/2812 00000KT P6SM SCT120
      TEMPO 2715/2716 BKN007
     FM271900 00000KT 6SM BR VCSH SCT040
     FM280300 00000KT 3SM BR SKC
     FM280600 00000KT 2SM BR SKC=



000
FTUS41 KCTP 271406 AAB
TAFMDT
TAF AMD
KMDT 271406Z 2714/2812 00000KT P6SM SCT035 OVC100
     FM271700 26003KT P6SM VCSH SCT050 BKN120
     FM272000 15005KT P6SM VCTS BKN050CB
     FM280300 00000KT 4SM BR BKN050=



000
FTUS41 KCTP 271406 AAB
TAFMDT
TAF AMD
KMDT 271406Z 2714/2812 00000KT P6SM SCT035 OVC100
     FM271700 26003KT P6SM VCSH SCT050 BKN120
     FM272000 15005KT P6SM VCTS BKN050CB
     FM280300 00000KT 4SM BR BKN050=



000
FTUS41 KCTP 271406 AAB
TAFMDT
TAF AMD
KMDT 271406Z 2714/2812 00000KT P6SM SCT035 OVC100
     FM271700 26003KT P6SM VCSH SCT050 BKN120
     FM272000 15005KT P6SM VCTS BKN050CB
     FM280300 00000KT 4SM BR BKN050=



000
FTUS41 KCTP 271406 AAB
TAFMDT
TAF AMD
KMDT 271406Z 2714/2812 00000KT P6SM SCT035 OVC100
     FM271700 26003KT P6SM VCSH SCT050 BKN120
     FM272000 15005KT P6SM VCTS BKN050CB
     FM280300 00000KT 4SM BR BKN050=



000
FTUS41 KCTP 271404 AAA
TAFIPT
TAF AMD
KIPT 271404Z 2714/2812 00000KT P6SM OVC017
     FM271500 VRB03KT P6SM SCT025 BKN120
     FM271800 18003KT P6SM VCTS SCT050CB
     FM280300 14003KT 4SM BR SCT250
     FM280600 00000KT 1 1/2SM BR SCT250=



000
FTUS41 KCTP 271404 AAA
TAFIPT
TAF AMD
KIPT 271404Z 2714/2812 00000KT P6SM OVC017
     FM271500 VRB03KT P6SM SCT025 BKN120
     FM271800 18003KT P6SM VCTS SCT050CB
     FM280300 14003KT 4SM BR SCT250
     FM280600 00000KT 1 1/2SM BR SCT250=



000
FTUS41 KCTP 271402 AAB
TAFJST
TAF AMD
KJST 271402Z 2714/2812 32003KT 6SM HZ SCT040 BKN100
      TEMPO 2714/2715 BKN025
     FM271800 VRB03KT 6SM HZ VCSH BKN040
     FM280300 15003KT 4SM BR SKC=



000
FTUS41 KCTP 271402 AAB
TAFJST
TAF AMD
KJST 271402Z 2714/2812 32003KT 6SM HZ SCT040 BKN100
      TEMPO 2714/2715 BKN025
     FM271800 VRB03KT 6SM HZ VCSH BKN040
     FM280300 15003KT 4SM BR SKC=



000
FTUS41 KCTP 271316 AAB
TAFUNV
TAF AMD
KUNV 271316Z 2713/2812 00000KT 4SM BR OVC003
     FM271400 34003KT P6SM SCT120
      TEMPO 2714/2715 BKN003
     FM271900 00000KT 6SM BR VCSH SCT040
     FM280300 00000KT 3SM BR SKC
     FM280600 00000KT 2SM BR SKC=



000
FTUS41 KCTP 271316 AAB
TAFUNV
TAF AMD
KUNV 271316Z 2713/2812 00000KT 4SM BR OVC003
     FM271400 34003KT P6SM SCT120
      TEMPO 2714/2715 BKN003
     FM271900 00000KT 6SM BR VCSH SCT040
     FM280300 00000KT 3SM BR SKC
     FM280600 00000KT 2SM BR SKC=



000
FTUS41 KCTP 271316 AAB
TAFUNV
TAF AMD
KUNV 271316Z 2713/2812 00000KT 4SM BR OVC003
     FM271400 34003KT P6SM SCT120
      TEMPO 2714/2715 BKN003
     FM271900 00000KT 6SM BR VCSH SCT040
     FM280300 00000KT 3SM BR SKC
     FM280600 00000KT 2SM BR SKC=



000
FTUS41 KCTP 271316 AAB
TAFUNV
TAF AMD
KUNV 271316Z 2713/2812 00000KT 4SM BR OVC003
     FM271400 34003KT P6SM SCT120
      TEMPO 2714/2715 BKN003
     FM271900 00000KT 6SM BR VCSH SCT040
     FM280300 00000KT 3SM BR SKC
     FM280600 00000KT 2SM BR SKC=



000
FTUS41 KCTP 271244 AAA
TAFMDT
TAF AMD
KMDT 271244Z 2713/2812 00000KT P6SM OVC035
     FM271400 26003KT P6SM FEW007 SCT035
     FM272000 15005KT P6SM VCSH BKN050
     FM280300 00000KT 4SM BR BKN050=



000
FTUS41 KCTP 271244 AAA
TAFMDT
TAF AMD
KMDT 271244Z 2713/2812 00000KT P6SM OVC035
     FM271400 26003KT P6SM FEW007 SCT035
     FM272000 15005KT P6SM VCSH BKN050
     FM280300 00000KT 4SM BR BKN050=



000
FTUS41 KCTP 271244 AAA
TAFMDT
TAF AMD
KMDT 271244Z 2713/2812 00000KT P6SM OVC035
     FM271400 26003KT P6SM FEW007 SCT035
     FM272000 15005KT P6SM VCSH BKN050
     FM280300 00000KT 4SM BR BKN050=



000
FTUS41 KCTP 271244 AAA
TAFMDT
TAF AMD
KMDT 271244Z 2713/2812 00000KT P6SM OVC035
     FM271400 26003KT P6SM FEW007 SCT035
     FM272000 15005KT P6SM VCSH BKN050
     FM280300 00000KT 4SM BR BKN050=



000
FTUS41 KCTP 271243 CCA
TAFAOO
TAF COR
KAOO 271243Z 2713/2812 00000KT 4SM BR SCT050
     FM271315 VRB03KT P6SM BKN050
     FM272000 00000KT P6SM VCSH SCT040 BKN100
     FM280300 00000KT 4SM BR SKC
     FM280600 00000KT 2SM BR SKC=



000
FTUS41 KCTP 271243 CCA
TAFAOO
TAF COR
KAOO 271243Z 2713/2812 00000KT 4SM BR SCT050
     FM271315 VRB03KT P6SM BKN050
     FM272000 00000KT P6SM VCSH SCT040 BKN100
     FM280300 00000KT 4SM BR SKC
     FM280600 00000KT 2SM BR SKC=



000
FTUS41 KCTP 271243 CCA
TAFAOO
TAF COR
KAOO 271243Z 2713/2812 00000KT 4SM BR SCT050
     FM271315 VRB03KT P6SM BKN050
     FM272000 00000KT P6SM VCSH SCT040 BKN100
     FM280300 00000KT 4SM BR SKC
     FM280600 00000KT 2SM BR SKC=



000
FTUS41 KCTP 271243 CCA
TAFAOO
TAF COR
KAOO 271243Z 2713/2812 00000KT 4SM BR SCT050
     FM271315 VRB03KT P6SM BKN050
     FM272000 00000KT P6SM VCSH SCT040 BKN100
     FM280300 00000KT 4SM BR SKC
     FM280600 00000KT 2SM BR SKC=



000
FTUS41 KCTP 271242 AAA
TAFUNV
TAF AMD
KUNV 271242Z 2713/2812 00000KT 1SM BR OVC001
      TEMPO 2713/2714 4SM BR SCT001
     FM271400 34003KT P6SM BKN120
      TEMPO 2714/2715 BKN001
     FM271900 00000KT 6SM BR VCSH SCT040 BKN100
     FM280300 00000KT 3SM BR SKC
     FM280600 00000KT 2SM BR SKC=



000
FTUS41 KCTP 271242 AAA
TAFUNV
TAF AMD
KUNV 271242Z 2713/2812 00000KT 1SM BR OVC001
      TEMPO 2713/2714 4SM BR SCT001
     FM271400 34003KT P6SM BKN120
      TEMPO 2714/2715 BKN001
     FM271900 00000KT 6SM BR VCSH SCT040 BKN100
     FM280300 00000KT 3SM BR SKC
     FM280600 00000KT 2SM BR SKC=



000
FTUS41 KCTP 271242 AAA
TAFUNV
TAF AMD
KUNV 271242Z 2713/2812 00000KT 1SM BR OVC001
      TEMPO 2713/2714 4SM BR SCT001
     FM271400 34003KT P6SM BKN120
      TEMPO 2714/2715 BKN001
     FM271900 00000KT 6SM BR VCSH SCT040 BKN100
     FM280300 00000KT 3SM BR SKC
     FM280600 00000KT 2SM BR SKC=



000
FTUS41 KCTP 271242 AAA
TAFUNV
TAF AMD
KUNV 271242Z 2713/2812 00000KT 1SM BR OVC001
      TEMPO 2713/2714 4SM BR SCT001
     FM271400 34003KT P6SM BKN120
      TEMPO 2714/2715 BKN001
     FM271900 00000KT 6SM BR VCSH SCT040 BKN100
     FM280300 00000KT 3SM BR SKC
     FM280600 00000KT 2SM BR SKC=



000
FTUS41 KCTP 271241 AAA
TAFAOO
TAF AMD
KAOO 271241Z 2713/2812 00000KT 4SM BR SCT050
     FM271315 VRB03KT P6SM BKN050
     FM272000 00000KT 4SM BR VCSH SCT040 BKN100
     FM280600 00000KT 2SM BR SKC=



000
FTUS41 KCTP 271241 AAA
TAFAOO
TAF AMD
KAOO 271241Z 2713/2812 00000KT 4SM BR SCT050
     FM271315 VRB03KT P6SM BKN050
     FM272000 00000KT 4SM BR VCSH SCT040 BKN100
     FM280600 00000KT 2SM BR SKC=



000
FTUS41 KCTP 271241 AAA
TAFAOO
TAF AMD
KAOO 271241Z 2713/2812 00000KT 4SM BR SCT050
     FM271315 VRB03KT P6SM BKN050
     FM272000 00000KT 4SM BR VCSH SCT040 BKN100
     FM280600 00000KT 2SM BR SKC=



000
FTUS41 KCTP 271241 AAA
TAFAOO
TAF AMD
KAOO 271241Z 2713/2812 00000KT 4SM BR SCT050
     FM271315 VRB03KT P6SM BKN050
     FM272000 00000KT 4SM BR VCSH SCT040 BKN100
     FM280600 00000KT 2SM BR SKC=



000
FTUS41 KCTP 271240 AAA
TAFJST
TAF AMD
KJST 271240Z 2713/2812 23003KT 3SM BR FEW030
     FM271400 32003KT P6SM SCT040 BKN100
     FM280300 15003KT 4SM BR SKC=



000
FTUS41 KCTP 271240 AAA
TAFJST
TAF AMD
KJST 271240Z 2713/2812 23003KT 3SM BR FEW030
     FM271400 32003KT P6SM SCT040 BKN100
     FM280300 15003KT 4SM BR SKC=



000
FTUS41 KCTP 271240 AAA
TAFJST
TAF AMD
KJST 271240Z 2713/2812 23003KT 3SM BR FEW030
     FM271400 32003KT P6SM SCT040 BKN100
     FM280300 15003KT 4SM BR SKC=



000
FTUS41 KCTP 271240 AAA
TAFBFD
TAF AMD
KBFD 271240Z 2713/2812 00000KT 4SM BR SCT001
     FM271330 05005KT P6SM SKC
     FM280600 00000KT 1/2SM FG SKC=



000
FTUS41 KCTP 271240 AAA
TAFBFD
TAF AMD
KBFD 271240Z 2713/2812 00000KT 4SM BR SCT001
     FM271330 05005KT P6SM SKC
     FM280600 00000KT 1/2SM FG SKC=



000
FTUS41 KCTP 271240 AAA
TAFBFD
TAF AMD
KBFD 271240Z 2713/2812 00000KT 4SM BR SCT001
     FM271330 05005KT P6SM SKC
     FM280600 00000KT 1/2SM FG SKC=



000
FTUS41 KCTP 271240 AAA
TAFJST
TAF AMD
KJST 271240Z 2713/2812 23003KT 3SM BR FEW030
     FM271400 32003KT P6SM SCT040 BKN100
     FM280300 15003KT 4SM BR SKC=



000
FTUS41 KCTP 271154
TAFMDT
TAF
KMDT 271154Z 2712/2812 00000KT P6SM SCT006
     FM271400 26003KT P6SM FEW007 SCT250
     FM272100 15005KT P6SM VCSH BKN050
     FM280300 00000KT 4SM BR BKN050=



000
FTUS41 KCTP 271154
TAFMDT
TAF
KMDT 271154Z 2712/2812 00000KT P6SM SCT006
     FM271400 26003KT P6SM FEW007 SCT250
     FM272100 15005KT P6SM VCSH BKN050
     FM280300 00000KT 4SM BR BKN050=



000
FTUS41 KCTP 271154
TAFMDT
TAF
KMDT 271154Z 2712/2812 00000KT P6SM SCT006
     FM271400 26003KT P6SM FEW007 SCT250
     FM272100 15005KT P6SM VCSH BKN050
     FM280300 00000KT 4SM BR BKN050=



000
FTUS41 KCTP 271150
TAFAOO
TAF
KAOO 271150Z 2712/2812 00000KT 1SM BR SKC
      TEMPO 2712/2713 4SM BR
     FM271300 VRB03KT P6SM BKN120
     FM280000 00000KT 4SM BR VCSH SCT040 BKN100
     FM280600 00000KT 2SM BR SKC=



000
FTUS41 KCTP 271150
TAFJST
TAF
KJST 271150Z 2712/2812 23003KT 2SM BR FEW030
     FM271400 32003KT P6SM SCT040 BKN100
     FM280300 15003KT 4SM BR SKC=



000
FTUS41 KCTP 271150
TAFUNV
TAF
KUNV 271150Z 2712/2812 00000KT 1/4SM FG OVC001
      TEMPO 2712/2714 4SM BR SCT001
     FM271400 34003KT P6SM BKN120
     FM280000 00000KT 4SM BR VCSH SCT040 BKN100
     FM280600 00000KT 2SM BR SKC=



000
FTUS41 KCTP 271150
TAFUNV
TAF
KUNV 271150Z 2712/2812 00000KT 1/4SM FG OVC001
      TEMPO 2712/2714 4SM BR SCT001
     FM271400 34003KT P6SM BKN120
     FM280000 00000KT 4SM BR VCSH SCT040 BKN100
     FM280600 00000KT 2SM BR SKC=



000
FTUS41 KCTP 271150
TAFMDT
TAF
KMDT 271150Z 2712/2812 12004KT P6SM BKN007
     FM271400 26003KT P6SM FEW007 SCT250
     FM272100 15005KT P6SM VCSH BKN050
     FM280300 00000KT 4SM BR BKN050=



000
FTUS41 KCTP 271150
TAFIPT
TAF
KIPT 271150Z 2712/2812 00000KT P6SM OVC016
     FM271400 VRB03KT P6SM SCT015 BKN120
     FM271800 18003KT P6SM SCT050
     FM272100 14003KT P6SM SCT250
     FM280600 00000KT 1 1/2SM BR SCT250=



000
FTUS41 KCTP 271150
TAFBFD
TAF
KBFD 271150Z 2712/2812 00000KT 3/4SM BR VV001
      TEMPO 2712/2714 4SM BR SCT001
     FM271400 05005KT P6SM SKC
     FM280600 00000KT 1/2SM FG SKC=



000
FTUS41 KCTP 271150
TAFIPT
TAF
KIPT 271150Z 2712/2812 00000KT P6SM OVC016
     FM271400 VRB03KT P6SM SCT015 BKN120
     FM271800 18003KT P6SM SCT050
     FM272100 14003KT P6SM SCT250
     FM280600 00000KT 1 1/2SM BR SCT250=



000
FTUS41 KCTP 271150
TAFJST
TAF
KJST 271150Z 2712/2812 23003KT 2SM BR FEW030
     FM271400 32003KT P6SM SCT040 BKN100
     FM280300 15003KT 4SM BR SKC=



000
FTUS41 KCTP 271150
TAFBFD
TAF
KBFD 271150Z 2712/2812 00000KT 3/4SM BR VV001
      TEMPO 2712/2714 4SM BR SCT001
     FM271400 05005KT P6SM SKC
     FM280600 00000KT 1/2SM FG SKC=



000
FTUS41 KCTP 271150
TAFUNV
TAF
KUNV 271150Z 2712/2812 00000KT 1/4SM FG OVC001
      TEMPO 2712/2714 4SM BR SCT001
     FM271400 34003KT P6SM BKN120
     FM280000 00000KT 4SM BR VCSH SCT040 BKN100
     FM280600 00000KT 2SM BR SKC=



000
FTUS41 KCTP 271150
TAFJST
TAF
KJST 271150Z 2712/2812 23003KT 2SM BR FEW030
     FM271400 32003KT P6SM SCT040 BKN100
     FM280300 15003KT 4SM BR SKC=



000
FTUS41 KCTP 271150
TAFBFD
TAF
KBFD 271150Z 2712/2812 00000KT 3/4SM BR VV001
      TEMPO 2712/2714 4SM BR SCT001
     FM271400 05005KT P6SM SKC
     FM280600 00000KT 1/2SM FG SKC=



000
FTUS41 KCTP 271150
TAFUNV
TAF
KUNV 271150Z 2712/2812 00000KT 1/4SM FG OVC001
      TEMPO 2712/2714 4SM BR SCT001
     FM271400 34003KT P6SM BKN120
     FM280000 00000KT 4SM BR VCSH SCT040 BKN100
     FM280600 00000KT 2SM BR SKC=



000
FTUS41 KCTP 271150
TAFMDT
TAF
KMDT 271150Z 2712/2812 12004KT P6SM BKN007
     FM271400 26003KT P6SM FEW007 SCT250
     FM272100 15005KT P6SM VCSH BKN050
     FM280300 00000KT 4SM BR BKN050=



000
FTUS41 KCTP 271150
TAFIPT
TAF
KIPT 271150Z 2712/2812 00000KT P6SM OVC016
     FM271400 VRB03KT P6SM SCT015 BKN120
     FM271800 18003KT P6SM SCT050
     FM272100 14003KT P6SM SCT250
     FM280600 00000KT 1 1/2SM BR SCT250=



000
FTUS41 KCTP 271150
TAFBFD
TAF
KBFD 271150Z 2712/2812 00000KT 3/4SM BR VV001
      TEMPO 2712/2714 4SM BR SCT001
     FM271400 05005KT P6SM SKC
     FM280600 00000KT 1/2SM FG SKC=



000
FTUS41 KCTP 271150
TAFAOO
TAF
KAOO 271150Z 2712/2812 00000KT 1SM BR SKC
      TEMPO 2712/2713 4SM BR
     FM271300 VRB03KT P6SM BKN120
     FM280000 00000KT 4SM BR VCSH SCT040 BKN100
     FM280600 00000KT 2SM BR SKC=



000
FTUS41 KCTP 271150
TAFIPT
TAF
KIPT 271150Z 2712/2812 00000KT P6SM OVC016
     FM271400 VRB03KT P6SM SCT015 BKN120
     FM271800 18003KT P6SM SCT050
     FM272100 14003KT P6SM SCT250
     FM280600 00000KT 1 1/2SM BR SCT250=



000
FTUS41 KCTP 271150
TAFMDT
TAF
KMDT 271150Z 2712/2812 12004KT P6SM BKN007
     FM271400 26003KT P6SM FEW007 SCT250
     FM272100 15005KT P6SM VCSH BKN050
     FM280300 00000KT 4SM BR BKN050=



000
FTUS41 KCTP 271150
TAFJST
TAF
KJST 271150Z 2712/2812 23003KT 2SM BR FEW030
     FM271400 32003KT P6SM SCT040 BKN100
     FM280300 15003KT 4SM BR SKC=



000
FTUS41 KCTP 271150
TAFAOO
TAF
KAOO 271150Z 2712/2812 00000KT 1SM BR SKC
      TEMPO 2712/2713 4SM BR
     FM271300 VRB03KT P6SM BKN120
     FM280000 00000KT 4SM BR VCSH SCT040 BKN100
     FM280600 00000KT 2SM BR SKC=



000
FTUS41 KCTP 270949 AAF
TAFBFD
TAF AMD
KBFD 270949Z 2710/2806 00000KT 1/4SM FG VV002
      TEMPO 2710/2712 2SM BR BKN002
     FM271200 VRB02KT 4SM BR BKN025
     FM271300 05005KT P6SM SKC=



000
FTUS41 KCTP 270949 AAF
TAFBFD
TAF AMD
KBFD 270949Z 2710/2806 00000KT 1/4SM FG VV002
      TEMPO 2710/2712 2SM BR BKN002
     FM271200 VRB02KT 4SM BR BKN025
     FM271300 05005KT P6SM SKC=



000
FTUS41 KCTP 270932 AAD
TAFIPT
TAF AMD
KIPT 270932Z 2710/2806 00000KT P6SM BKN016
      TEMPO 2710/2712 BKN004 OVC014
     FM271300 VRB03KT 6SM HZ SCT120
     FM272100 14003KT P6SM SCT250 PROB30 2721/2724 P6SM TS BKN050CB=



000
FTUS41 KCTP 270932 AAD
TAFIPT
TAF AMD
KIPT 270932Z 2710/2806 00000KT P6SM BKN016
      TEMPO 2710/2712 BKN004 OVC014
     FM271300 VRB03KT 6SM HZ SCT120
     FM272100 14003KT P6SM SCT250 PROB30 2721/2724 P6SM TS BKN050CB=



000
FTUS41 KCTP 270932 AAE
TAFBFD
TAF AMD
KBFD 270932Z 2710/2806 31003KT P6SM SCT002
      TEMPO 2710/2712 BKN002
     FM271200 VRB02KT 4SM BR BKN025
     FM271300 05005KT P6SM SKC=



000
FTUS41 KCTP 270932 AAE
TAFBFD
TAF AMD
KBFD 270932Z 2710/2806 31003KT P6SM SCT002
      TEMPO 2710/2712 BKN002
     FM271200 VRB02KT 4SM BR BKN025
     FM271300 05005KT P6SM SKC=



000
FTUS41 KCTP 270932 AAD
TAFIPT
TAF AMD
KIPT 270932Z 2710/2806 00000KT P6SM BKN016
      TEMPO 2710/2712 BKN004 OVC014
     FM271300 VRB03KT 6SM HZ SCT120
     FM272100 14003KT P6SM SCT250 PROB30 2721/2724 P6SM TS BKN050CB=



000
FTUS41 KCTP 270859 AAC
TAFMDT
TAF AMD
KMDT 270859Z 2709/2806 10004KT P6SM SCT008 BKN012 OVC160
     FM271000 VRB03KT 4SM BR BKN007 OVC050
     FM271200 VRB03KT 6SM HZ VCSH BKN050=



000
FTUS41 KCTP 270859 AAC
TAFMDT
TAF AMD
KMDT 270859Z 2709/2806 10004KT P6SM SCT008 BKN012 OVC160
     FM271000 VRB03KT 4SM BR BKN007 OVC050
     FM271200 VRB03KT 6SM HZ VCSH BKN050=



000
FTUS41 KCTP 270859 AAC
TAFMDT
TAF AMD
KMDT 270859Z 2709/2806 10004KT P6SM SCT008 BKN012 OVC160
     FM271000 VRB03KT 4SM BR BKN007 OVC050
     FM271200 VRB03KT 6SM HZ VCSH BKN050=



000
FTUS41 KCTP 270859 AAC
TAFMDT
TAF AMD
KMDT 270859Z 2709/2806 10004KT P6SM SCT008 BKN012 OVC160
     FM271000 VRB03KT 4SM BR BKN007 OVC050
     FM271200 VRB03KT 6SM HZ VCSH BKN050=



000
FTUS41 KCTP 270858 AAB
TAFUNV
TAF AMD
KUNV 270858Z 2709/2806 00000KT 1/2SM FG OVC001
      TEMPO 2711/2713 4SM BR SCT001
     FM271300 VRB03KT P6SM BKN120=



000
FTUS41 KCTP 270858 AAB
TAFUNV
TAF AMD
KUNV 270858Z 2709/2806 00000KT 1/2SM FG OVC001
      TEMPO 2711/2713 4SM BR SCT001
     FM271300 VRB03KT P6SM BKN120=



000
FTUS41 KCTP 270858 AAB
TAFUNV
TAF AMD
KUNV 270858Z 2709/2806 00000KT 1/2SM FG OVC001
      TEMPO 2711/2713 4SM BR SCT001
     FM271300 VRB03KT P6SM BKN120=



000
FTUS41 KCTP 270858 AAB
TAFUNV
TAF AMD
KUNV 270858Z 2709/2806 00000KT 1/2SM FG OVC001
      TEMPO 2711/2713 4SM BR SCT001
     FM271300 VRB03KT P6SM BKN120=



000
FTUS41 KCTP 270857 AAA
TAFAOO
TAF AMD
KAOO 270857Z 2709/2806 00000KT 4SM BR BKN080
      TEMPO 2710/2712 2SM BR
     FM271300 VRB03KT 6SM HZ BKN120=



000
FTUS41 KCTP 270857 AAB
TAFJST
TAF AMD
KJST 270857Z 2709/2806 00000KT P6SM SCT070
     FM271000 00000KT 4SM BR SCT035 BKN100
     FM271300 VRB03KT 6SM HZ SCT040 BKN100=



000
FTUS41 KCTP 270857 AAB
TAFJST
TAF AMD
KJST 270857Z 2709/2806 00000KT P6SM SCT070
     FM271000 00000KT 4SM BR SCT035 BKN100
     FM271300 VRB03KT 6SM HZ SCT040 BKN100=



000
FTUS41 KCTP 270857 AAD
TAFBFD
TAF AMD
KBFD 270857Z 2709/2806 31003KT P6SM SCT080
     FM271000 VRB02KT 4SM BR BKN025
     FM271300 05005KT P6SM SKC=



000
FTUS41 KCTP 270857 AAD
TAFBFD
TAF AMD
KBFD 270857Z 2709/2806 31003KT P6SM SCT080
     FM271000 VRB02KT 4SM BR BKN025
     FM271300 05005KT P6SM SKC=



000
FTUS41 KCTP 270837 AAC
TAFIPT
TAF AMD
KIPT 270837Z 2709/2806 00000KT P6SM FEW004 BKN014 BKN030
      TEMPO 2710/2712 BKN004 OVC014
     FM271300 VRB03KT 6SM HZ SCT120
     FM272100 14003KT P6SM SCT250 PROB30 2721/2724 P6SM TS BKN050CB=



000
FTUS41 KCTP 270837 AAC
TAFIPT
TAF AMD
KIPT 270837Z 2709/2806 00000KT P6SM FEW004 BKN014 BKN030
      TEMPO 2710/2712 BKN004 OVC014
     FM271300 VRB03KT 6SM HZ SCT120
     FM272100 14003KT P6SM SCT250 PROB30 2721/2724 P6SM TS BKN050CB=



000
FTUS41 KCTP 270805 AAB
TAFMDT
TAF AMD
KMDT 270805Z 2708/2806 10004KT P6SM SCT008 BKN012 OVC160
     FM270900 VRB03KT 4SM BR BKN007 OVC050
     FM271200 VRB03KT 6SM HZ VCSH BKN050=



000
FTUS41 KCTP 270805 AAB
TAFMDT
TAF AMD
KMDT 270805Z 2708/2806 10004KT P6SM SCT008 BKN012 OVC160
     FM270900 VRB03KT 4SM BR BKN007 OVC050
     FM271200 VRB03KT 6SM HZ VCSH BKN050=



000
FTUS41 KCTP 270805 AAA
TAFJST
TAF AMD
KJST 270805Z 2708/2806 21003KT P6SM SKC
     FM271000 00000KT 4SM BR SCT035 BKN100
     FM271300 VRB03KT 6SM HZ SCT040 BKN100=



000
FTUS41 KCTP 270805 AAA
TAFJST
TAF AMD
KJST 270805Z 2708/2806 21003KT P6SM SKC
     FM271000 00000KT 4SM BR SCT035 BKN100
     FM271300 VRB03KT 6SM HZ SCT040 BKN100=



000
FTUS41 KCTP 270804 AAC
TAFBFD
TAF AMD
KBFD 270804Z 2708/2806 00000KT P6SM FEW090
     FM270900 00000KT 2SM BR SCT003
      TEMPO 2709/2712 3/4SM BR
     FM271300 05005KT P6SM SKC=



000
FTUS41 KCTP 270804 AAC
TAFBFD
TAF AMD
KBFD 270804Z 2708/2806 00000KT P6SM FEW090
     FM270900 00000KT 2SM BR SCT003
      TEMPO 2709/2712 3/4SM BR
     FM271300 05005KT P6SM SKC=



000
FTUS41 KCTP 270739 AAB
TAFIPT
TAF AMD
KIPT 270739Z 2708/2806 00000KT 6SM BR BKN004 BKN026
     FM271300 VRB03KT 6SM HZ SCT120
     FM272100 14003KT P6SM SCT250 PROB30 2721/2724 P6SM TS BKN050CB=



000
FTUS41 KCTP 270739 AAB
TAFIPT
TAF AMD
KIPT 270739Z 2708/2806 00000KT 6SM BR BKN004 BKN026
     FM271300 VRB03KT 6SM HZ SCT120
     FM272100 14003KT P6SM SCT250 PROB30 2721/2724 P6SM TS BKN050CB=



000
FTUS41 KCTP 270709 AAA
TAFIPT
TAF AMD
KIPT 270709Z 2707/2806 06004KT 6SM BR SCT004 SCT026
     FM270800 00000KT 2SM BR OVC004
     FM271300 VRB03KT 6SM HZ SCT120
     FM272100 14003KT P6SM SCT250 PROB30 2721/2724 P6SM TS BKN050CB=



000
FTUS41 KCTP 270709 AAA
TAFIPT
TAF AMD
KIPT 270709Z 2707/2806 06004KT 6SM BR SCT004 SCT026
     FM270800 00000KT 2SM BR OVC004
     FM271300 VRB03KT 6SM HZ SCT120
     FM272100 14003KT P6SM SCT250 PROB30 2721/2724 P6SM TS BKN050CB=



000
FTUS41 KCTP 270708 AAA
TAFUNV
TAF AMD
KUNV 270708Z 2707/2806 00000KT 1/2SM FG SCT080 SCT090
      TEMPO 2707/2709 3/4SM BR BKN001
     FM270900 00000KT 1/2SM FG OVC015
     FM271300 VRB03KT 6SM HZ BKN120=



000
FTUS41 KCTP 270708 AAA
TAFUNV
TAF AMD
KUNV 270708Z 2707/2806 00000KT 1/2SM FG SCT080 SCT090
      TEMPO 2707/2709 3/4SM BR BKN001
     FM270900 00000KT 1/2SM FG OVC015
     FM271300 VRB03KT 6SM HZ BKN120=



000
FTUS41 KCTP 270659 AAA
TAFMDT
TAF AMD
KMDT 270659Z 2707/2806 VRB05KT 6SM RA FEW035 BKN050 OVC200
     FM270900 VRB03KT 4SM BR VCSH BKN007 OVC050
     FM271200 VRB03KT 6SM HZ VCSH BKN050=



000
FTUS41 KCTP 270659 AAA
TAFMDT
TAF AMD
KMDT 270659Z 2707/2806 VRB05KT 6SM RA FEW035 BKN050 OVC200
     FM270900 VRB03KT 4SM BR VCSH BKN007 OVC050
     FM271200 VRB03KT 6SM HZ VCSH BKN050=



000
FTUS41 KCTP 270658 AAB
TAFBFD
TAF AMD
KBFD 270658Z 2707/2806 00000KT P6SM FEW090
     FM270800 00000KT 2SM BR SCT003
      TEMPO 2708/2712 3/4SM BR
     FM271300 05005KT P6SM SKC=



000
FTUS41 KCTP 270658 AAB
TAFBFD
TAF AMD
KBFD 270658Z 2707/2806 00000KT P6SM FEW090
     FM270800 00000KT 2SM BR SCT003
      TEMPO 2708/2712 3/4SM BR
     FM271300 05005KT P6SM SKC=



000
FTUS41 KCTP 270658 AAB
TAFBFD
TAF AMD
KBFD 270658Z 2707/2806 00000KT P6SM FEW090
     FM270800 00000KT 2SM BR SCT003
      TEMPO 2708/2712 3/4SM BR
     FM271300 05005KT P6SM SKC=



000
FTUS41 KCTP 270604 AAA
TAFBFD
TAF AMD
KBFD 270604Z 2706/2806 00000KT 1 1/2SM BR SKC
     FM270800 00000KT 2SM BR SCT003
      TEMPO 2708/2712 3/4SM BR
     FM271300 05005KT P6SM SKC=



000
FTUS41 KCTP 270604 AAA
TAFBFD
TAF AMD
KBFD 270604Z 2706/2806 00000KT 1 1/2SM BR SKC
     FM270800 00000KT 2SM BR SCT003
      TEMPO 2708/2712 3/4SM BR
     FM271300 05005KT P6SM SKC=



000
FTUS41 KCTP 270604 AAA
TAFBFD
TAF AMD
KBFD 270604Z 2706/2806 00000KT 1 1/2SM BR SKC
     FM270800 00000KT 2SM BR SCT003
      TEMPO 2708/2712 3/4SM BR
     FM271300 05005KT P6SM SKC=



000
FTUS41 KCTP 270604 AAA
TAFBFD
TAF AMD
KBFD 270604Z 2706/2806 00000KT 1 1/2SM BR SKC
     FM270800 00000KT 2SM BR SCT003
      TEMPO 2708/2712 3/4SM BR
     FM271300 05005KT P6SM SKC=



000
FTUS41 KCTP 270554
TAFMDT
TAF
KMDT 270554Z 2706/2806 00000KT P6SM -RA VCTS SCT007 SCT016CB OVC110
      TEMPO 2706/2707 4SM -RA BR BKN007 OVC016
     FM270700 VRB03KT 4SM BR VCSH BKN007 OVC050
     FM271200 VRB03KT 6SM HZ VCSH BKN050=



000
FTUS41 KCTP 270554
TAFBFD
TAF
KBFD 270554Z 2706/2806 00000KT P6SM SKC
     FM270800 00000KT 2SM BR SCT003
      TEMPO 2708/2712 3/4SM BR
     FM271300 05005KT P6SM SKC=



000
FTUS41 KCTP 270554
TAFIPT
TAF
KIPT 270554Z 2706/2806 04004KT P6SM OVC004
     FM270800 00000KT 2SM BR OVC004
     FM271300 VRB03KT 6SM HZ SCT120
     FM272100 14003KT P6SM SCT250 PROB30 2721/2724 P6SM TS BKN050CB=



000
FTUS41 KCTP 270554
TAFAOO
TAF
KAOO 270554Z 2706/2806 00000KT 5SM BR SKC
     FM270700 00000KT 4SM BR SCT035 OVC100
      TEMPO 2710/2712 2SM BR
     FM271300 VRB03KT 6SM HZ BKN120=



000
FTUS41 KCTP 270554
TAFJST
TAF
KJST 270554Z 2706/2806 21003KT P6SM SKC
     FM270800 00000KT 4SM BR SCT035 BKN100
      TEMPO 2708/2712 2SM BR
     FM271300 VRB03KT 6SM HZ SCT040 BKN100=



000
FTUS41 KCTP 270554
TAFUNV
TAF
KUNV 270554Z 2706/2806 00000KT 1/2SM FG SCT080 SCT090
     FM270900 00000KT 1/2SM FG OVC015
     FM271300 VRB03KT 6SM HZ BKN120=



000
FTUS41 KCTP 270554
TAFBFD
TAF
KBFD 270554Z 2706/2806 00000KT P6SM SKC
     FM270800 00000KT 2SM BR SCT003
      TEMPO 2708/2712 3/4SM BR
     FM271300 05005KT P6SM SKC=



000
FTUS41 KCTP 270554
TAFIPT
TAF
KIPT 270554Z 2706/2806 04004KT P6SM OVC004
     FM270800 00000KT 2SM BR OVC004
     FM271300 VRB03KT 6SM HZ SCT120
     FM272100 14003KT P6SM SCT250 PROB30 2721/2724 P6SM TS BKN050CB=



000
FTUS41 KCTP 270554
TAFAOO
TAF
KAOO 270554Z 2706/2806 00000KT 5SM BR SKC
     FM270700 00000KT 4SM BR SCT035 OVC100
      TEMPO 2710/2712 2SM BR
     FM271300 VRB03KT 6SM HZ BKN120=



000
FTUS41 KCTP 270554
TAFUNV
TAF
KUNV 270554Z 2706/2806 00000KT 1/2SM FG SCT080 SCT090
     FM270900 00000KT 1/2SM FG OVC015
     FM271300 VRB03KT 6SM HZ BKN120=



000
FTUS41 KCTP 270554
TAFJST
TAF
KJST 270554Z 2706/2806 21003KT P6SM SKC
     FM270800 00000KT 4SM BR SCT035 BKN100
      TEMPO 2708/2712 2SM BR
     FM271300 VRB03KT 6SM HZ SCT040 BKN100=



000
FTUS41 KCTP 270554
TAFMDT
TAF
KMDT 270554Z 2706/2806 00000KT P6SM -RA VCTS SCT007 SCT016CB OVC110
      TEMPO 2706/2707 4SM -RA BR BKN007 OVC016
     FM270700 VRB03KT 4SM BR VCSH BKN007 OVC050
     FM271200 VRB03KT 6SM HZ VCSH BKN050=



000
FTUS41 KCTP 270554
TAFUNV
TAF
KUNV 270554Z 2706/2806 00000KT 1/2SM FG SCT080 SCT090
     FM270900 00000KT 1/2SM FG OVC015
     FM271300 VRB03KT 6SM HZ BKN120=



000
FTUS41 KCTP 270554
TAFIPT
TAF
KIPT 270554Z 2706/2806 04004KT P6SM OVC004
     FM270800 00000KT 2SM BR OVC004
     FM271300 VRB03KT 6SM HZ SCT120
     FM272100 14003KT P6SM SCT250 PROB30 2721/2724 P6SM TS BKN050CB=



000
FTUS41 KCTP 270554
TAFBFD
TAF
KBFD 270554Z 2706/2806 00000KT P6SM SKC
     FM270800 00000KT 2SM BR SCT003
      TEMPO 2708/2712 3/4SM BR
     FM271300 05005KT P6SM SKC=



000
FTUS41 KCTP 270554
TAFAOO
TAF
KAOO 270554Z 2706/2806 00000KT 5SM BR SKC
     FM270700 00000KT 4SM BR SCT035 OVC100
      TEMPO 2710/2712 2SM BR
     FM271300 VRB03KT 6SM HZ BKN120=



000
FTUS41 KCTP 270554
TAFJST
TAF
KJST 270554Z 2706/2806 21003KT P6SM SKC
     FM270800 00000KT 4SM BR SCT035 BKN100
      TEMPO 2708/2712 2SM BR
     FM271300 VRB03KT 6SM HZ SCT040 BKN100=



000
FTUS41 KCTP 270554
TAFUNV
TAF
KUNV 270554Z 2706/2806 00000KT 1/2SM FG SCT080 SCT090
     FM270900 00000KT 1/2SM FG OVC015
     FM271300 VRB03KT 6SM HZ BKN120=



000
FTUS41 KCTP 270554
TAFJST
TAF
KJST 270554Z 2706/2806 21003KT P6SM SKC
     FM270800 00000KT 4SM BR SCT035 BKN100
      TEMPO 2708/2712 2SM BR
     FM271300 VRB03KT 6SM HZ SCT040 BKN100=



000
FTUS41 KCTP 270554
TAFAOO
TAF
KAOO 270554Z 2706/2806 00000KT 5SM BR SKC
     FM270700 00000KT 4SM BR SCT035 OVC100
      TEMPO 2710/2712 2SM BR
     FM271300 VRB03KT 6SM HZ BKN120=



000
FTUS41 KCTP 270554
TAFBFD
TAF
KBFD 270554Z 2706/2806 00000KT P6SM SKC
     FM270800 00000KT 2SM BR SCT003
      TEMPO 2708/2712 3/4SM BR
     FM271300 05005KT P6SM SKC=



000
FTUS41 KCTP 270554
TAFIPT
TAF
KIPT 270554Z 2706/2806 04004KT P6SM OVC004
     FM270800 00000KT 2SM BR OVC004
     FM271300 VRB03KT 6SM HZ SCT120
     FM272100 14003KT P6SM SCT250 PROB30 2721/2724 P6SM TS BKN050CB=



000
FTUS41 KCTP 270554
TAFMDT
TAF
KMDT 270554Z 2706/2806 00000KT P6SM -RA VCTS SCT007 SCT016CB OVC110
      TEMPO 2706/2707 4SM -RA BR BKN007 OVC016
     FM270700 VRB03KT 4SM BR VCSH BKN007 OVC050
     FM271200 VRB03KT 6SM HZ VCSH BKN050=



000
FTUS41 KCTP 270554
TAFMDT
TAF
KMDT 270554Z 2706/2806 00000KT P6SM -RA VCTS SCT007 SCT016CB OVC110
      TEMPO 2706/2707 4SM -RA BR BKN007 OVC016
     FM270700 VRB03KT 4SM BR VCSH BKN007 OVC050
     FM271200 VRB03KT 6SM HZ VCSH BKN050=



000
FTUS41 KCTP 270407 AAC
TAFMDT
TAF AMD
KMDT 270407Z 2704/2724 28009KT 2SM -TSRA SCT010 BKN030CB OVC080
      TEMPO 2704/2705 27010G30KT 3/4SM TSRA OVC025CB
     FM270500 VRB03KT 3SM -RA VCTS OVC035CB
     FM270700 VRB03KT 4SM BR VCSH BKN040 OVC100
     FM271200 VRB03KT 6SM HZ VCSH BKN050=



000
FTUS41 KCTP 270407 AAC
TAFMDT
TAF AMD
KMDT 270407Z 2704/2724 28009KT 2SM -TSRA SCT010 BKN030CB OVC080
      TEMPO 2704/2705 27010G30KT 3/4SM TSRA OVC025CB
     FM270500 VRB03KT 3SM -RA VCTS OVC035CB
     FM270700 VRB03KT 4SM BR VCSH BKN040 OVC100
     FM271200 VRB03KT 6SM HZ VCSH BKN050=



000
FTUS41 KCTP 270407 AAA
TAFBFD
TAF AMD
KBFD 270407Z 2704/2724 VRB05KT P6SM BKN060
     FM270600 00000KT 4SM BR SKC
     FM270800 00000KT 2SM BR SCT003
      TEMPO 2708/2712 3/4SM BR
     FM271300 05005KT P6SM SKC=



000
FTUS41 KCTP 270407 AAA
TAFIPT
TAF AMD
KIPT 270407Z 2704/2724 VRB03KT P6SM SCT007 BKN050
     FM270600 VRB03KT 4SM BR BKN035
     FM270800 00000KT 2SM BR SCT060 BKN120
     FM271300 VRB03KT 6SM HZ SCT120=



000
FTUS41 KCTP 270407 AAB
TAFUNV
TAF AMD
KUNV 270407Z 2704/2724 00000KT 2SM BR VV007
     FM270600 00000KT 1SM BR SCT060 OVC120
     FM271300 VRB03KT 6SM HZ BKN120=



000
FTUS41 KCTP 270407 AAA
TAFAOO
TAF AMD
KAOO 270407Z 2704/2724 VRB03KT 5SM BR SCT050
     FM270700 00000KT 4SM BR SCT035 OVC100
     FM271300 VRB03KT 6SM HZ BKN120=



000
FTUS41 KCTP 270407 AAB
TAFJST
TAF AMD
KJST 270407Z 2704/2724 08003KT P6SM VCSH SCT045 BKN100
     FM270600 VRB03KT 6SM BR VCSH BKN035
     FM270800 00000KT 4SM BR SCT035 BKN100
      TEMPO 2708/2712 2SM BR
     FM271300 VRB03KT 6SM HZ SCT040 BKN100=



000
FTUS41 KCTP 270407 AAB
TAFUNV
TAF AMD
KUNV 270407Z 2704/2724 00000KT 2SM BR VV007
     FM270600 00000KT 1SM BR SCT060 OVC120
     FM271300 VRB03KT 6SM HZ BKN120=



000
FTUS41 KCTP 270407 AAA
TAFBFD
TAF AMD
KBFD 270407Z 2704/2724 VRB05KT P6SM BKN060
     FM270600 00000KT 4SM BR SKC
     FM270800 00000KT 2SM BR SCT003
      TEMPO 2708/2712 3/4SM BR
     FM271300 05005KT P6SM SKC=



000
FTUS41 KCTP 270407 AAB
TAFJST
TAF AMD
KJST 270407Z 2704/2724 08003KT P6SM VCSH SCT045 BKN100
     FM270600 VRB03KT 6SM BR VCSH BKN035
     FM270800 00000KT 4SM BR SCT035 BKN100
      TEMPO 2708/2712 2SM BR
     FM271300 VRB03KT 6SM HZ SCT040 BKN100=



000
FTUS41 KCTP 270407 AAA
TAFIPT
TAF AMD
KIPT 270407Z 2704/2724 VRB03KT P6SM SCT007 BKN050
     FM270600 VRB03KT 4SM BR BKN035
     FM270800 00000KT 2SM BR SCT060 BKN120
     FM271300 VRB03KT 6SM HZ SCT120=



000
FTUS41 KCTP 270407 AAA
TAFAOO
TAF AMD
KAOO 270407Z 2704/2724 VRB03KT 5SM BR SCT050
     FM270700 00000KT 4SM BR SCT035 OVC100
     FM271300 VRB03KT 6SM HZ BKN120=



000
FTUS41 KCTP 270407 AAB
TAFJST
TAF AMD
KJST 270407Z 2704/2724 08003KT P6SM VCSH SCT045 BKN100
     FM270600 VRB03KT 6SM BR VCSH BKN035
     FM270800 00000KT 4SM BR SCT035 BKN100
      TEMPO 2708/2712 2SM BR
     FM271300 VRB03KT 6SM HZ SCT040 BKN100=



000
FTUS41 KCTP 270407 AAC
TAFMDT
TAF AMD
KMDT 270407Z 2704/2724 28009KT 2SM -TSRA SCT010 BKN030CB OVC080
      TEMPO 2704/2705 27010G30KT 3/4SM TSRA OVC025CB
     FM270500 VRB03KT 3SM -RA VCTS OVC035CB
     FM270700 VRB03KT 4SM BR VCSH BKN040 OVC100
     FM271200 VRB03KT 6SM HZ VCSH BKN050=



000
FTUS41 KCTP 270407 AAA
TAFIPT
TAF AMD
KIPT 270407Z 2704/2724 VRB03KT P6SM SCT007 BKN050
     FM270600 VRB03KT 4SM BR BKN035
     FM270800 00000KT 2SM BR SCT060 BKN120
     FM271300 VRB03KT 6SM HZ SCT120=



000
FTUS41 KCTP 270407 AAB
TAFUNV
TAF AMD
KUNV 270407Z 2704/2724 00000KT 2SM BR VV007
     FM270600 00000KT 1SM BR SCT060 OVC120
     FM271300 VRB03KT 6SM HZ BKN120=



000
FTUS41 KCTP 270407 AAA
TAFAOO
TAF AMD
KAOO 270407Z 2704/2724 VRB03KT 5SM BR SCT050
     FM270700 00000KT 4SM BR SCT035 OVC100
     FM271300 VRB03KT 6SM HZ BKN120=



000
FTUS41 KCTP 270407 AAA
TAFBFD
TAF AMD
KBFD 270407Z 2704/2724 VRB05KT P6SM BKN060
     FM270600 00000KT 4SM BR SKC
     FM270800 00000KT 2SM BR SCT003
      TEMPO 2708/2712 3/4SM BR
     FM271300 05005KT P6SM SKC=



000
FTUS41 KCTP 270316 AAB
TAFMDT
TAF AMD
KMDT 270316Z 2703/2724 14006KT 1SM -TSRA BKN035CB OVC060
      TEMPO 2703/2704 27010G30KT 3/4SM TSRA OVC025CB
     FM270400 VRB03KT 3SM -RA VCTS OVC035CB
     FM270500 VRB03KT 4SM BR VCSH BKN040 OVC100
     FM271200 VRB03KT 6SM HZ VCSH BKN050=



000
FTUS41 KCTP 270316 AAB
TAFMDT
TAF AMD
KMDT 270316Z 2703/2724 14006KT 1SM -TSRA BKN035CB OVC060
      TEMPO 2703/2704 27010G30KT 3/4SM TSRA OVC025CB
     FM270400 VRB03KT 3SM -RA VCTS OVC035CB
     FM270500 VRB03KT 4SM BR VCSH BKN040 OVC100
     FM271200 VRB03KT 6SM HZ VCSH BKN050=



000
FTUS41 KCTP 270240 AAA
TAFMDT
TAF AMD
KMDT 270240Z 2703/2724 14006KT 6SM -SHRA VCTS SCT035 BKN050CB
      OVC150
      TEMPO 2703/2704 1SM -TSRA BKN040CB
     FM270400 VRB03KT 1SM RA VCTS OVC035CB
     FM270500 VRB03KT 4SM BR VCSH BKN040 OVC100
     FM271200 VRB03KT 6SM HZ VCSH BKN050=



000
FTUS41 KCTP 270101 AAA
TAFJST
TAF AMD
KJST 270101Z 2701/2724 27008KT P6SM VCSH SCT045 BKN100
      TEMPO 2701/2702 -TSRA OVC035CB
     FM270200 30003KT 6SM BR VCSH BKN035
     FM270600 00000KT 4SM BR SCT035 BKN100
      TEMPO 2708/2712 2SM BR
     FM271300 VRB03KT 6SM HZ SCT040 BKN100=



000
FTUS41 KCTP 270101 AAA
TAFJST
TAF AMD
KJST 270101Z 2701/2724 27008KT P6SM VCSH SCT045 BKN100
      TEMPO 2701/2702 -TSRA OVC035CB
     FM270200 30003KT 6SM BR VCSH BKN035
     FM270600 00000KT 4SM BR SCT035 BKN100
      TEMPO 2708/2712 2SM BR
     FM271300 VRB03KT 6SM HZ SCT040 BKN100=



000
FTUS41 KCTP 270046 AAA
TAFUNV
TAF AMD
KUNV 270046Z 2701/2724 VRB04KT P6SM -SHRA VCTS BKN045CB OVC060
      TEMPO 2701/2703 5SM -TSRA BR OVC035CB
     FM270300 VRB03KT 4SM BR VCSH BKN035
     FM270600 00000KT 2SM BR SCT060 OVC120
     FM271300 VRB03KT 6SM HZ BKN120=



000
FTUS41 KCTP 270046 AAA
TAFUNV
TAF AMD
KUNV 270046Z 2701/2724 VRB04KT P6SM -SHRA VCTS BKN045CB OVC060
      TEMPO 2701/2703 5SM -TSRA BR OVC035CB
     FM270300 VRB03KT 4SM BR VCSH BKN035
     FM270600 00000KT 2SM BR SCT060 OVC120
     FM271300 VRB03KT 6SM HZ BKN120=



000
FTUS41 KCTP 262330
TAFBFD
TAF
KBFD 262330Z 2700/2724 VRB05KT P6SM BKN060
     FM270100 00000KT 6SM BR SCT030
     FM270300 00000KT 4SM BR SKC
     FM270500 00000KT 2SM BR SCT003
      TEMPO 2708/2712 3/4SM BR
     FM271300 05005KT P6SM SKC=



000
FTUS41 KCTP 262330
TAFJST
TAF
KJST 262330Z 2700/2724 26004KT P6SM VCSH SCT045 BKN100
      TEMPO 2700/2702 -SHRA OVC035
     FM270200 30003KT 6SM BR VCSH BKN035
     FM270600 00000KT 4SM BR SCT035 BKN100
      TEMPO 2708/2712 2SM BR
     FM271300 VRB03KT 6SM HZ SCT040 BKN100=



000
FTUS41 KCTP 262330
TAFAOO
TAF
KAOO 262330Z 2700/2724 VRB03KT P6SM VCSH SCT050 OVC090
      TEMPO 2700/2702 5SM -TSRA OVC040CB
     FM270200 30003KT 6SM BR VCSH BKN035
     FM270700 00000KT 4SM BR SCT035 OVC100
     FM271300 VRB03KT 6SM HZ BKN120=



000
FTUS41 KCTP 262330
TAFMDT
TAF
KMDT 262330Z 2700/2724 14005KT P6SM VCSH SCT045 BKN060 OVC250
      TEMPO 2700/2704 4SM -TSRA BKN040CB
     FM270400 VRB03KT 6SM -SHRA VCTS OVC050CB
     FM270800 VRB03KT 4SM BR VCSH BKN040 OVC100
     FM271200 VRB03KT 6SM HZ VCSH BKN050=



000
FTUS41 KCTP 262330
TAFUNV
TAF
KUNV 262330Z 2700/2724 VRB04KT P6SM FEW015 SCT025 BKN045
     FM270300 VRB03KT 4SM BR VCSH BKN035
     FM270600 00000KT 2SM BR SCT060 OVC120
     FM271300 VRB03KT 6SM HZ BKN120=



000
FTUS41 KCTP 262330
TAFIPT
TAF
KIPT 262330Z 2700/2724 VRB03KT P6SM SCT035 BKN080
     FM270200 VRB03KT 4SM BR BKN035
     FM270600 00000KT 2SM BR SCT060 BKN120
     FM271300 VRB03KT 6SM HZ SCT120=



000
FTUS41 KCTP 262330
TAFBFD
TAF
KBFD 262330Z 2700/2724 VRB05KT P6SM BKN060
     FM270100 00000KT 6SM BR SCT030
     FM270300 00000KT 4SM BR SKC
     FM270500 00000KT 2SM BR SCT003
      TEMPO 2708/2712 3/4SM BR
     FM271300 05005KT P6SM SKC=



000
FTUS41 KCTP 262330
TAFAOO
TAF
KAOO 262330Z 2700/2724 VRB03KT P6SM VCSH SCT050 OVC090
      TEMPO 2700/2702 5SM -TSRA OVC040CB
     FM270200 30003KT 6SM BR VCSH BKN035
     FM270700 00000KT 4SM BR SCT035 OVC100
     FM271300 VRB03KT 6SM HZ BKN120=



000
FTUS41 KCTP 262330
TAFJST
TAF
KJST 262330Z 2700/2724 26004KT P6SM VCSH SCT045 BKN100
      TEMPO 2700/2702 -SHRA OVC035
     FM270200 30003KT 6SM BR VCSH BKN035
     FM270600 00000KT 4SM BR SCT035 BKN100
      TEMPO 2708/2712 2SM BR
     FM271300 VRB03KT 6SM HZ SCT040 BKN100=



000
FTUS41 KCTP 262330
TAFIPT
TAF
KIPT 262330Z 2700/2724 VRB03KT P6SM SCT035 BKN080
     FM270200 VRB03KT 4SM BR BKN035
     FM270600 00000KT 2SM BR SCT060 BKN120
     FM271300 VRB03KT 6SM HZ SCT120=



000
FTUS41 KCTP 262330
TAFUNV
TAF
KUNV 262330Z 2700/2724 VRB04KT P6SM FEW015 SCT025 BKN045
     FM270300 VRB03KT 4SM BR VCSH BKN035
     FM270600 00000KT 2SM BR SCT060 OVC120
     FM271300 VRB03KT 6SM HZ BKN120=



000
FTUS41 KCTP 262330
TAFMDT
TAF
KMDT 262330Z 2700/2724 14005KT P6SM VCSH SCT045 BKN060 OVC250
      TEMPO 2700/2704 4SM -TSRA BKN040CB
     FM270400 VRB03KT 6SM -SHRA VCTS OVC050CB
     FM270800 VRB03KT 4SM BR VCSH BKN040 OVC100
     FM271200 VRB03KT 6SM HZ VCSH BKN050=



000
FTUS41 KCTP 262239 AAB
TAFIPT
TAF AMD
KIPT 262239Z 2623/2718 20005KT 6SM -SHRA VCTS BKN035CB
      TEMPO 2623/2701 27010G35KT 1SM TSRA OVC015CB
     FM270200 VRB03KT 4SM BR BKN035
     FM270600 00000KT 2SM BR SCT060 BKN120
     FM271300 VRB03KT 6SM HZ SCT120=



000
FTUS41 KCTP 262239 AAB
TAFIPT
TAF AMD
KIPT 262239Z 2623/2718 20005KT 6SM -SHRA VCTS BKN035CB
      TEMPO 2623/2701 27010G35KT 1SM TSRA OVC015CB
     FM270200 VRB03KT 4SM BR BKN035
     FM270600 00000KT 2SM BR SCT060 BKN120
     FM271300 VRB03KT 6SM HZ SCT120=



000
FTUS41 KCTP 262146 AAA
TAFBFD
TAF AMD
KBFD 262146Z 2622/2718 33009KT P6SM VCSH FEW045 BKN060
     FM270100 00000KT 6SM BR SCT030
     FM270300 00000KT 4SM BR SKC
     FM270500 00000KT 2SM BR SCT003
      TEMPO 2708/2712 3/4SM BR
     FM271300 05005KT P6SM SKC=



000
FTUS41 KCTP 262146 AAA
TAFUNV
TAF AMD
KUNV 262146Z 2622/2718 22005KT P6SM -SHRA VCTS BKN040CB OVC060
      TEMPO 2622/2701 5SM -TSRA OVC035CB
     FM270300 VRB03KT 4SM BR VCSH BKN035
     FM270600 00000KT 2SM BR SCT060 OVC120
     FM271300 VRB03KT 6SM HZ BKN120=



000
FTUS41 KCTP 262146 AAB
TAFJST
TAF AMD
KJST 262146Z 2622/2718 26007KT 6SM HZ VCSH SCT045 BKN100
      TEMPO 2622/2624 -SHRA OVC035
     FM270100 30003KT 6SM BR VCSH BKN035
     FM270600 00000KT 4SM BR SCT035 BKN100
      TEMPO 2708/2712 2SM BR
     FM271300 VRB03KT 6SM HZ SCT040 BKN100=



000
FTUS41 KCTP 262146 AAB
TAFAOO
TAF AMD
KAOO 262146Z 2622/2718 VRB03KT P6SM BKN060
      TEMPO 2622/2702 5SM -TSRA OVC040CB
     FM270200 30003KT 6SM BR VCSH BKN035
     FM270700 00000KT 4SM BR SCT035 OVC100
     FM271300 VRB03KT 6SM HZ BKN120=



000
FTUS41 KCTP 262146 AAB
TAFJST
TAF AMD
KJST 262146Z 2622/2718 26007KT 6SM HZ VCSH SCT045 BKN100
      TEMPO 2622/2624 -SHRA OVC035
     FM270100 30003KT 6SM BR VCSH BKN035
     FM270600 00000KT 4SM BR SCT035 BKN100
      TEMPO 2708/2712 2SM BR
     FM271300 VRB03KT 6SM HZ SCT040 BKN100=



000
FTUS41 KCTP 262146 AAB
TAFAOO
TAF AMD
KAOO 262146Z 2622/2718 VRB03KT P6SM BKN060
      TEMPO 2622/2702 5SM -TSRA OVC040CB
     FM270200 30003KT 6SM BR VCSH BKN035
     FM270700 00000KT 4SM BR SCT035 OVC100
     FM271300 VRB03KT 6SM HZ BKN120=



000
FTUS41 KCTP 262146 AAA
TAFMDT
TAF AMD
KMDT 262146Z 2622/2718 19008G15KT P6SM SCT040 BKN060
     FM270000 18004KT P6SM VCSH OVC060
      TEMPO 2700/2704 4SM -TSRA BKN040CB
     FM270400 VRB03KT 6SM -SHRA VCTS OVC050CB
     FM270800 VRB03KT 4SM BR VCSH BKN040 OVC100
     FM271200 VRB03KT 6SM HZ VCSH BKN050=



000
FTUS41 KCTP 262146 AAA
TAFBFD
TAF AMD
KBFD 262146Z 2622/2718 33009KT P6SM VCSH FEW045 BKN060
     FM270100 00000KT 6SM BR SCT030
     FM270300 00000KT 4SM BR SKC
     FM270500 00000KT 2SM BR SCT003
      TEMPO 2708/2712 3/4SM BR
     FM271300 05005KT P6SM SKC=



000
FTUS41 KCTP 262146 AAA
TAFIPT
TAF AMD
KIPT 262146Z 2622/2718 20005KT 6SM -SHRA VCTS BKN035CB
      TEMPO 2622/2701 4SM -TSRA OVC035CB
     FM270200 VRB03KT 4SM BR BKN035
     FM270600 00000KT 2SM BR SCT060 BKN120
     FM271300 VRB03KT 6SM HZ SCT120=



000
FTUS41 KCTP 262146 AAA
TAFUNV
TAF AMD
KUNV 262146Z 2622/2718 22005KT P6SM -SHRA VCTS BKN040CB OVC060
      TEMPO 2622/2701 5SM -TSRA OVC035CB
     FM270300 VRB03KT 4SM BR VCSH BKN035
     FM270600 00000KT 2SM BR SCT060 OVC120
     FM271300 VRB03KT 6SM HZ BKN120=



000
FTUS41 KCTP 261825 AAA
TAFAOO
TAF AMD
KAOO 261825Z 2618/2718 23007KT P6SM BKN050
      TEMPO 2619/2621 -SHRA OVC035
     FM262100 26006KT P6SM VCSH BKN040
      TEMPO 2622/2702 5SM -TSRA OVC040CB
     FM270200 30003KT 6SM BR VCSH BKN035
     FM270700 00000KT 4SM BR SCT035 OVC100
     FM271300 VRB03KT 6SM HZ BKN120=



000
FTUS41 KCTP 261825 AAA
TAFAOO
TAF AMD
KAOO 261825Z 2618/2718 23007KT P6SM BKN050
      TEMPO 2619/2621 -SHRA OVC035
     FM262100 26006KT P6SM VCSH BKN040
      TEMPO 2622/2702 5SM -TSRA OVC040CB
     FM270200 30003KT 6SM BR VCSH BKN035
     FM270700 00000KT 4SM BR SCT035 OVC100
     FM271300 VRB03KT 6SM HZ BKN120=



000
FTUS41 KCTP 261825 AAA
TAFJST
TAF AMD
KJST 261825Z 2618/2718 24007KT 6SM HZ VCSH SCT035 BKN100
      TEMPO 2619/2621 -SHRA OVC035
     FM262100 26006KT 6SM -SHRA VCTS BKN035CB
     FM270100 30003KT 6SM BR VCSH BKN035
     FM270600 00000KT 4SM BR SCT035 BKN100
      TEMPO 2708/2712 2SM BR
     FM271300 VRB03KT 6SM HZ SCT040 BKN100=



000
FTUS41 KCTP 261825 AAA
TAFJST
TAF AMD
KJST 261825Z 2618/2718 24007KT 6SM HZ VCSH SCT035 BKN100
      TEMPO 2619/2621 -SHRA OVC035
     FM262100 26006KT 6SM -SHRA VCTS BKN035CB
     FM270100 30003KT 6SM BR VCSH BKN035
     FM270600 00000KT 4SM BR SCT035 BKN100
      TEMPO 2708/2712 2SM BR
     FM271300 VRB03KT 6SM HZ SCT040 BKN100=



000
FTUS41 KCTP 261732
TAFMDT
TAF
KMDT 261732Z 2618/2718 19006KT P6SM SCT070
     FM270000 18004KT P6SM VCSH OVC060
      TEMPO 2700/2704 4SM -TSRA BKN040CB
     FM270400 VRB03KT 6SM -SHRA VCTS OVC050CB
     FM270800 VRB03KT 4SM BR VCSH BKN040 OVC100
     FM271200 VRB03KT 6SM HZ VCSH BKN050=



000
FTUS41 KCTP 261732
TAFBFD
TAF
KBFD 261732Z 2618/2718 29007KT 6SM -SHRA VCTS BKN025CB OVC040
      TEMPO 2618/2621 5SM -TSRA OVC025CB
     FM262200 31005KT P6SM VCSH BKN030 BKN250
     FM270000 00000KT 6SM BR SCT030
     FM270300 00000KT 4SM BR SKC
     FM270500 00000KT 2SM BR SCT003
      TEMPO 2708/2712 3/4SM BR
     FM271300 05005KT P6SM SKC=



000
FTUS41 KCTP 261732
TAFJST
TAF
KJST 261732Z 2618/2718 24007KT 6SM HZ SCT035
     FM262100 26006KT 6SM -SHRA VCTS BKN035CB
     FM270100 30003KT 6SM BR VCSH BKN035
     FM270600 00000KT 4SM BR SCT035 BKN100
      TEMPO 2708/2712 2SM BR
     FM271300 VRB03KT 6SM HZ SCT040 BKN100=



000
FTUS41 KCTP 261732
TAFIPT
TAF
KIPT 261732Z 2618/2718 VRB03KT P6SM BKN050
     FM261930 20005KT 6SM -SHRA VCTS BKN035CB
      TEMPO 2621/2701 4SM -TSRA OVC035CB
     FM270200 VRB03KT 4SM BR BKN035
     FM270600 00000KT 2SM BR SCT060 BKN120
     FM271300 VRB03KT 6SM HZ SCT120=



000
FTUS41 KCTP 261732
TAFIPT
TAF
KIPT 261732Z 2618/2718 VRB03KT P6SM BKN050
     FM261930 20005KT 6SM -SHRA VCTS BKN035CB
      TEMPO 2621/2701 4SM -TSRA OVC035CB
     FM270200 VRB03KT 4SM BR BKN035
     FM270600 00000KT 2SM BR SCT060 BKN120
     FM271300 VRB03KT 6SM HZ SCT120=



000
FTUS41 KCTP 261732
TAFUNV
TAF
KUNV 261732Z 2618/2718 VRB03KT P6SM BKN050
     FM262000 20005KT P6SM VCSH BKN035
      TEMPO 2621/2701 5SM -TSRA OVC035CB
     FM270300 VRB03KT 4SM BR VCSH BKN035
     FM270600 00000KT 2SM BR SCT060 OVC120
     FM271300 VRB03KT 6SM HZ BKN120=



000
FTUS41 KCTP 261732
TAFUNV
TAF
KUNV 261732Z 2618/2718 VRB03KT P6SM BKN050
     FM262000 20005KT P6SM VCSH BKN035
      TEMPO 2621/2701 5SM -TSRA OVC035CB
     FM270300 VRB03KT 4SM BR VCSH BKN035
     FM270600 00000KT 2SM BR SCT060 OVC120
     FM271300 VRB03KT 6SM HZ BKN120=



000
FTUS41 KCTP 261732
TAFBFD
TAF
KBFD 261732Z 2618/2718 29007KT 6SM -SHRA VCTS BKN025CB OVC040
      TEMPO 2618/2621 5SM -TSRA OVC025CB
     FM262200 31005KT P6SM VCSH BKN030 BKN250
     FM270000 00000KT 6SM BR SCT030
     FM270300 00000KT 4SM BR SKC
     FM270500 00000KT 2SM BR SCT003
      TEMPO 2708/2712 3/4SM BR
     FM271300 05005KT P6SM SKC=



000
FTUS41 KCTP 261732
TAFMDT
TAF
KMDT 261732Z 2618/2718 19006KT P6SM SCT070
     FM270000 18004KT P6SM VCSH OVC060
      TEMPO 2700/2704 4SM -TSRA BKN040CB
     FM270400 VRB03KT 6SM -SHRA VCTS OVC050CB
     FM270800 VRB03KT 4SM BR VCSH BKN040 OVC100
     FM271200 VRB03KT 6SM HZ VCSH BKN050=



000
FTUS41 KCTP 261732
TAFAOO
TAF
KAOO 261732Z 2618/2718 23007KT P6SM BKN050
     FM262100 26006KT P6SM VCSH BKN040
      TEMPO 2622/2702 5SM -TSRA OVC040CB
     FM270200 30003KT 6SM BR VCSH BKN035
     FM270700 00000KT 4SM BR SCT035 OVC100
     FM271300 VRB03KT 6SM HZ BKN120=



000
FTUS41 KCTP 261732
TAFMDT
TAF
KMDT 261732Z 2618/2718 19006KT P6SM SCT070
     FM270000 18004KT P6SM VCSH OVC060
      TEMPO 2700/2704 4SM -TSRA BKN040CB
     FM270400 VRB03KT 6SM -SHRA VCTS OVC050CB
     FM270800 VRB03KT 4SM BR VCSH BKN040 OVC100
     FM271200 VRB03KT 6SM HZ VCSH BKN050=



000
FTUS41 KCTP 261732
TAFAOO
TAF
KAOO 261732Z 2618/2718 23007KT P6SM BKN050
     FM262100 26006KT P6SM VCSH BKN040
      TEMPO 2622/2702 5SM -TSRA OVC040CB
     FM270200 30003KT 6SM BR VCSH BKN035
     FM270700 00000KT 4SM BR SCT035 OVC100
     FM271300 VRB03KT 6SM HZ BKN120=



000
FTUS41 KCTP 261732
TAFJST
TAF
KJST 261732Z 2618/2718 24007KT 6SM HZ SCT035
     FM262100 26006KT 6SM -SHRA VCTS BKN035CB
     FM270100 30003KT 6SM BR VCSH BKN035
     FM270600 00000KT 4SM BR SCT035 BKN100
      TEMPO 2708/2712 2SM BR
     FM271300 VRB03KT 6SM HZ SCT040 BKN100=



000
FTUS41 KCTP 261732
TAFUNV
TAF
KUNV 261732Z 2618/2718 VRB03KT P6SM BKN050
     FM262000 20005KT P6SM VCSH BKN035
      TEMPO 2621/2701 5SM -TSRA OVC035CB
     FM270300 VRB03KT 4SM BR VCSH BKN035
     FM270600 00000KT 2SM BR SCT060 OVC120
     FM271300 VRB03KT 6SM HZ BKN120=



000
FTUS41 KCTP 261557 AAA
TAFMDT
TAF AMD
KMDT 261557Z 2616/2712 19006KT P6SM SCT070
     FM270000 18004KT P6SM OVC100
      TEMPO 2700/2704 -TSRA BKN050CB
     FM270600 12002KT 4SM BR VCSH OVC100=



000
FTUS41 KCTP 261555 AAB
TAFIPT
TAF AMD
KIPT 261555Z 2616/2712 VRB03KT P6SM SCT050
      TEMPO 2618/2622 5SM -TSRA BKN050CB
     FM262200 16005KT 4SM -SHRA VCTS OVC035CB
     FM270300 16002KT 4SM BR OVC100=



000
FTUS41 KCTP 261555 AAB
TAFIPT
TAF AMD
KIPT 261555Z 2616/2712 VRB03KT P6SM SCT050
      TEMPO 2618/2622 5SM -TSRA BKN050CB
     FM262200 16005KT 4SM -SHRA VCTS OVC035CB
     FM270300 16002KT 4SM BR OVC100=



000
FTUS41 KCTP 261553 AAA
TAFUNV
TAF AMD
KUNV 261553Z 2616/2712 VRB03KT P6SM BKN035
     FM261900 20005KT P6SM -SHRA VCTS BKN035CB
     FM270000 16002KT 4SM BR OVC100=



000
FTUS41 KCTP 261553 AAA
TAFUNV
TAF AMD
KUNV 261553Z 2616/2712 VRB03KT P6SM BKN035
     FM261900 20005KT P6SM -SHRA VCTS BKN035CB
     FM270000 16002KT 4SM BR OVC100=



000
FTUS41 KCTP 261551 AAA
TAFAOO
TAF AMD
KAOO 261551Z 2616/2712 23007KT 6SM HZ VCSH BKN035
     FM262000 26006KT 6SM -SHRA VCTS BKN035CB
     FM270100 30003KT 6SM BR VCSH BKN035
     FM270900 00000KT 4SM BR SCT035 BKN100=



000
FTUS41 KCTP 261551 AAA
TAFAOO
TAF AMD
KAOO 261551Z 2616/2712 23007KT 6SM HZ VCSH BKN035
     FM262000 26006KT 6SM -SHRA VCTS BKN035CB
     FM270100 30003KT 6SM BR VCSH BKN035
     FM270900 00000KT 4SM BR SCT035 BKN100=



000
FTUS41 KCTP 261550 AAA
TAFJST
TAF AMD
KJST 261550Z 2616/2712 24007KT 6SM HZ SCT035
     FM262100 26006KT 6SM -SHRA VCTS BKN035CB
     FM270100 30003KT 6SM BR VCSH BKN035
     FM270900 00000KT 4SM BR SCT035 BKN100=



000
FTUS41 KCTP 261550 AAA
TAFJST
TAF AMD
KJST 261550Z 2616/2712 24007KT 6SM HZ SCT035
     FM262100 26006KT 6SM -SHRA VCTS BKN035CB
     FM270100 30003KT 6SM BR VCSH BKN035
     FM270900 00000KT 4SM BR SCT035 BKN100=



000
FTUS41 KCTP 261547 AAA
TAFBFD
TAF AMD
KBFD 261547Z 2616/2712 00000KT P6SM FEW080 BKN100
     FM261700 29007KT 5SM -SHRA VCTS BKN025CB OVC040
     FM262100 31005KT P6SM VCSH BKN030 BKN250
     FM270000 00000KT 6SM BR SCT030
     FM270300 00000KT 2SM BR SKC
     FM270900 00000KT 4SM BR SKC=



000
FTUS41 KCTP 261547 AAA
TAFBFD
TAF AMD
KBFD 261547Z 2616/2712 00000KT P6SM FEW080 BKN100
     FM261700 29007KT 5SM -SHRA VCTS BKN025CB OVC040
     FM262100 31005KT P6SM VCSH BKN030 BKN250
     FM270000 00000KT 6SM BR SCT030
     FM270300 00000KT 2SM BR SKC
     FM270900 00000KT 4SM BR SKC=



000
FTUS41 KCTP 261547 AAA
TAFBFD
TAF AMD
KBFD 261547Z 2616/2712 00000KT P6SM FEW080 BKN100
     FM261700 29007KT 5SM -SHRA VCTS BKN025CB OVC040
     FM262100 31005KT P6SM VCSH BKN030 BKN250
     FM270000 00000KT 6SM BR SCT030
     FM270300 00000KT 2SM BR SKC
     FM270900 00000KT 4SM BR SKC=



000
FTUS41 KCTP 261547 AAA
TAFBFD
TAF AMD
KBFD 261547Z 2616/2712 00000KT P6SM FEW080 BKN100
     FM261700 29007KT 5SM -SHRA VCTS BKN025CB OVC040
     FM262100 31005KT P6SM VCSH BKN030 BKN250
     FM270000 00000KT 6SM BR SCT030
     FM270300 00000KT 2SM BR SKC
     FM270900 00000KT 4SM BR SKC=



000
FTUS41 KCTP 261403 AAA
TAFIPT
TAF AMD
KIPT 261403Z 2614/2712 VRB03KT 6SM HZ BKN035
      TEMPO 2617/2621 3SM -TSRA BR OVC035CB
     FM270000 16002KT 4SM BR OVC100=



000
FTUS41 KCTP 261403 AAA
TAFIPT
TAF AMD
KIPT 261403Z 2614/2712 VRB03KT 6SM HZ BKN035
      TEMPO 2617/2621 3SM -TSRA BR OVC035CB
     FM270000 16002KT 4SM BR OVC100=



000
FTUS41 KCTP 261120
TAFAOO
TAF
KAOO 261120Z 2612/2712 00000KT P6SM SKC
     FM261300 23007KT 6SM HZ VCSH BKN035
     FM270000 16002KT 4SM BR OVC100=



000
FTUS41 KCTP 261120
TAFJST
TAF
KJST 261120Z 2612/2712 21005KT P6SM SKC
     FM261400 26007KT 6SM HZ VCSH BKN035
     FM262100 26006KT 6SM -SHRA VCTS BKN035CB OVC050
     FM270100 30003KT 6SM BR VCSH BKN035
     FM270900 00000KT 4SM BR SCT035 BKN100=



000
FTUS41 KCTP 261120
TAFJST
TAF
KJST 261120Z 2612/2712 21005KT P6SM SKC
     FM261400 26007KT 6SM HZ VCSH BKN035
     FM262100 26006KT 6SM -SHRA VCTS BKN035CB OVC050
     FM270100 30003KT 6SM BR VCSH BKN035
     FM270900 00000KT 4SM BR SCT035 BKN100=



000
FTUS41 KCTP 261120
TAFMDT
TAF
KMDT 261120Z 2612/2712 00000KT P6SM FEW080 SCT250
     FM261400 20006KT P6SM SCT070
     FM270000 18004KT P6SM OVC100 PROB30 2700/2703 P6SM TS BKN050CB
     FM270300 12002KT 4SM BR OVC100=



000
FTUS41 KCTP 261120
TAFIPT
TAF
KIPT 261120Z 2612/2712 00000KT P6SM SKC
     FM261300 VRB03KT 6SM HZ VCSH BKN035
      TEMPO 2614/2618 3SM -TSRA BR OVC035CB
     FM270000 16002KT 4SM BR OVC100=



000
FTUS41 KCTP 261120
TAFIPT
TAF
KIPT 261120Z 2612/2712 00000KT P6SM SKC
     FM261300 VRB03KT 6SM HZ VCSH BKN035
      TEMPO 2614/2618 3SM -TSRA BR OVC035CB
     FM270000 16002KT 4SM BR OVC100=



000
FTUS41 KCTP 261120
TAFUNV
TAF
KUNV 261120Z 2612/2712 00000KT P6SM SCT070
     FM261500 VRB03KT 6SM HZ VCSH BKN035
     FM261900 20005KT P6SM VCTS BKN035CB
     FM270000 16002KT 4SM BR OVC100=



000
FTUS41 KCTP 261120
TAFBFD
TAF
KBFD 261120Z 2612/2712 00000KT P6SM FEW080 BKN100
     FM261800 29007KT 5SM -SHRA VCTS BKN025CB OVC040
     FM262200 31005KT P6SM VCSH BKN030 BKN250
     FM270300 00000KT 4SM BR BKN005 OVC025
     FM270600 00000KT 2SM BR SKC
     FM270900 00000KT 4SM BR SKC=



000
FTUS41 KCTP 261120
TAFAOO
TAF
KAOO 261120Z 2612/2712 00000KT P6SM SKC
     FM261300 23007KT 6SM HZ VCSH BKN035
     FM270000 16002KT 4SM BR OVC100=



000
FTUS41 KCTP 261120
TAFMDT
TAF
KMDT 261120Z 2612/2712 00000KT P6SM FEW080 SCT250
     FM261400 20006KT P6SM SCT070
     FM270000 18004KT P6SM OVC100 PROB30 2700/2703 P6SM TS BKN050CB
     FM270300 12002KT 4SM BR OVC100=



000
FTUS41 KCTP 261120
TAFBFD
TAF
KBFD 261120Z 2612/2712 00000KT P6SM FEW080 BKN100
     FM261800 29007KT 5SM -SHRA VCTS BKN025CB OVC040
     FM262200 31005KT P6SM VCSH BKN030 BKN250
     FM270300 00000KT 4SM BR BKN005 OVC025
     FM270600 00000KT 2SM BR SKC
     FM270900 00000KT 4SM BR SKC=



000
FTUS41 KCTP 261120
TAFUNV
TAF
KUNV 261120Z 2612/2712 00000KT P6SM SCT070
     FM261500 VRB03KT 6SM HZ VCSH BKN035
     FM261900 20005KT P6SM VCTS BKN035CB
     FM270000 16002KT 4SM BR OVC100=



000
FTUS41 KCTP 261017 AAC
TAFBFD
TAF AMD
KBFD 261017Z 2610/2706 00000KT 2SM BR FEW035 BKN080 BKN100
     FM261300 30005KT P6SM VCSH SCT019 BKN035
     FM261800 29007KT 5SM -SHRA VCTS BKN025CB OVC040
     FM262200 31005KT P6SM VCSH BKN030 BKN250
     FM270400 00000KT 4SM BR SCT005=



000
FTUS41 KCTP 261017 AAC
TAFBFD
TAF AMD
KBFD 261017Z 2610/2706 00000KT 2SM BR FEW035 BKN080 BKN100
     FM261300 30005KT P6SM VCSH SCT019 BKN035
     FM261800 29007KT 5SM -SHRA VCTS BKN025CB OVC040
     FM262200 31005KT P6SM VCSH BKN030 BKN250
     FM270400 00000KT 4SM BR SCT005=



000
FTUS41 KCTP 261000 AAB
TAFBFD
TAF AMD
KBFD 261000Z 2610/2706 00000KT 6SM BR SCT035 BKN110
     FM261300 30005KT P6SM VCSH SCT019 BKN035
     FM261800 29007KT 5SM -SHRA VCTS BKN025CB OVC040
     FM262200 31005KT P6SM VCSH BKN030 BKN250
     FM270400 00000KT 4SM BR SCT005=



000
FTUS41 KCTP 261000 AAB
TAFBFD
TAF AMD
KBFD 261000Z 2610/2706 00000KT 6SM BR SCT035 BKN110
     FM261300 30005KT P6SM VCSH SCT019 BKN035
     FM261800 29007KT 5SM -SHRA VCTS BKN025CB OVC040
     FM262200 31005KT P6SM VCSH BKN030 BKN250
     FM270400 00000KT 4SM BR SCT005=



    US Dept of Commerce
    National Oceanic and Atmospheric Administration
    National Weather Service
    1325 East West Highway
    Silver Spring, MD 20910
    Page Author: NWS Internet Services Team
Disclaimer
Information Quality
Credits
Glossary
Privacy Policy
Freedom of Information Act (FOIA)
About Us
Career Opportunities